Observation data for Roaring Springs on 01/13/2021      Previous  Date  Next       Current Mesonet Observations  Soil Data  Daily Summary Page  Observations in Plain Language
KRRS 130600Z 24012KT 01/M02 A3016 RMK A01 T00091017  RH  083%=      5-min Rain = 0
KRRS 130601Z 24012KT 01/M02 A3016 RMK A01 T00101017  RH  082%=      5-min Rain = 0
KRRS 130602Z 24012KT 01/M02 A3016 RMK A01 T00101017  RH  082%=      5-min Rain = 0
KRRS 130603Z 24012KT 01/M02 A3016 RMK A01 T00101017  RH  082%=      5-min Rain = 0
KRRS 130604Z 24011KT 01/M02 A3016 RMK A01 T00101017  RH  082%=      5-min Rain = 0
KRRS 130605Z 24011KT 01/M02 A3016 RMK A01 T00101017  RH  082%=      5-min Rain = 0
KRRS 130606Z 24011KT 01/M02 A3016 RMK A01 T00101018  RH  082%=      5-min Rain = 0
KRRS 130607Z 24011KT 01/M02 A3016 RMK A01 T00091017  RH  082%=      5-min Rain = 0
KRRS 130608Z 24011KT 01/M02 A3016 RMK A01 T00091017  RH  082%=      5-min Rain = 0
KRRS 130609Z 24011KT 01/M02 A3016 RMK A01 T00091018  RH  082%=      5-min Rain = 0
KRRS 130610Z 24011KT 01/M02 A3016 RMK A01 T00091018  RH  082%=      5-min Rain = 0
KRRS 130611Z 24012KT 01/M02 A3015 RMK A01 T00091018  RH  082%=      5-min Rain = 0
KRRS 130612Z 24011KT 01/M02 A3015 RMK A01 T00101018  RH  082%=      5-min Rain = 0
KRRS 130613Z 24011KT 01/M02 A3015 RMK A01 T00101018  RH  082%=      5-min Rain = 0
KRRS 130614Z 24010KT 01/M02 A3015 RMK A01 T00101018  RH  082%=      5-min Rain = 0
KRRS 130615Z 24011KT 01/M02 A3015 RMK A01 T00091018  RH  082%=      5-min Rain = 0
KRRS 130616Z 24011KT 01/M02 A3015 RMK A01 T00091018  RH  082%=      5-min Rain = 0
KRRS 130617Z 24011KT 01/M02 A3015 RMK A01 T00091018  RH  082%=      5-min Rain = 0
KRRS 130618Z 24010KT 01/M02 A3015 RMK A01 T00091018  RH  082%=      5-min Rain = 0
KRRS 130619Z 23011KT 01/M02 A3015 RMK A01 T00091018  RH  082%=      5-min Rain = 0
KRRS 130620Z 23011KT 01/M02 A3015 RMK A01 T00091018  RH  082%=      5-min Rain = 0
KRRS 130621Z 24011KT 01/M02 A3015 RMK A01 T00091018  RH  082%=      5-min Rain = 0
KRRS 130622Z 24010KT 01/M02 A3015 RMK A01 T00091018  RH  082%=      5-min Rain = 0
KRRS 130623Z 24011KT 01/M02 A3015 RMK A01 T00091018  RH  082%=      5-min Rain = 0
KRRS 130624Z 24011KT 01/M02 A3015 RMK A01 T00091018  RH  082%=      5-min Rain = 0
KRRS 130625Z 24011KT 01/M02 A3015 RMK A01 T00101018  RH  082%=      5-min Rain = 0
KRRS 130626Z 24012KT 01/M02 A3015 RMK A01 T00101018  RH  082%=      5-min Rain = 0
KRRS 130627Z 24011KT 01/M02 A3015 RMK A01 T00101018  RH  082%=      5-min Rain = 0
KRRS 130628Z 24011KT 01/M02 A3015 RMK A01 T00101018  RH  082%=      5-min Rain = 0
KRRS 130629Z 24011KT 01/M02 A3015 RMK A01 T00101018  RH  082%=      5-min Rain = 0
KRRS 130630Z 24011KT 01/M02 A3015 RMK A01 T00101018  RH  082%=      5-min Rain = 0
KRRS 130631Z 24011KT 01/M02 A3015 RMK A01 T00091019  RH  082%=      5-min Rain = 0
KRRS 130632Z 24011KT 01/M02 A3015 RMK A01 T00081019  RH  082%=      5-min Rain = 0
KRRS 130633Z 24010KT 01/M02 A3015 RMK A01 T00081019  RH  082%=      5-min Rain = 0
KRRS 130634Z 24011KT 01/M02 A3015 RMK A01 T00081019  RH  082%=      5-min Rain = 0
KRRS 130635Z 24011KT 01/M02 A3015 RMK A01 T00071019  RH  082%=      5-min Rain = 0
KRRS 130636Z 24011KT 01/M02 A3015 RMK A01 T00061020  RH  083%=      5-min Rain = 0
KRRS 130637Z 24011KT 01/M02 A3015 RMK A01 T00061020  RH  083%=      5-min Rain = 0
KRRS 130638Z 24010KT 01/M02 A3015 RMK A01 T00051020  RH  083%=      5-min Rain = 0
KRRS 130639Z 24010KT 01/M02 A3015 RMK A01 T00051020  RH  083%=      5-min Rain = 0
KRRS 130640Z 24010KT 01/M02 A3015 RMK A01 T00051020  RH  083%=      5-min Rain = 0
KRRS 130641Z 24010KT 01/M02 A3015 RMK A01 T00051020  RH  083%=      5-min Rain = 0
KRRS 130642Z 24010KT 00/M02 A3015 RMK A01 T00041021  RH  083%=      5-min Rain = 0
KRRS 130643Z 24010KT 00/M02 A3015 RMK A01 T00031021  RH  084%=      5-min Rain = 0
KRRS 130644Z 25010KT 00/M02 A3015 RMK A01 T00031021  RH  084%=      5-min Rain = 0
KRRS 130645Z 24010KT 00/M02 A3015 RMK A01 T00031021  RH  084%=      5-min Rain = 0
KRRS 130646Z 24011KT 00/M02 A3015 RMK A01 T00021021  RH  084%=      5-min Rain = 0
KRRS 130647Z 24011KT 00/M02 A3015 RMK A01 T00021021  RH  084%=      5-min Rain = 0
KRRS 130648Z 24012KT 00/M02 A3015 RMK A01 T00031021  RH  084%=      5-min Rain = 0
KRRS 130649Z 24011KT 00/M02 A3015 RMK A01 T00031021  RH  084%=      5-min Rain = 0
KRRS 130650Z 24012KT 00/M02 A3015 RMK A01 T00031022  RH  083%=      5-min Rain = 0
KRRS 130651Z 24012KT 00/M02 A3015 RMK A01 T00041021  RH  083%=      5-min Rain = 0
KRRS 130652Z 24011KT 01/M02 A3015 RMK A01 T00051021  RH  083%=      5-min Rain = 0
KRRS 130653Z 24011KT 01/M02 A3015 RMK A01 T00051021  RH  083%=      5-min Rain = 0
KRRS 130654Z 24012KT 01/M02 A3015 RMK A01 T00051022  RH  083%=      5-min Rain = 0
KRRS 130655Z 25012KT 01/M02 A3015 RMK A01 T00051021  RH  082%=      5-min Rain = 0
KRRS 130656Z 24012KT 01/M02 A3015 RMK A01 T00061021  RH  082%=      5-min Rain = 0
KRRS 130657Z 24011KT 01/M02 A3015 RMK A01 T00061021  RH  082%=      5-min Rain = 0
KRRS 130658Z 24012KT 01/M02 A3014 RMK A01 T00061021  RH  082%=      5-min Rain = 0
KRRS 130659Z 24011KT 01/M02 A3014 RMK A01 T00061021  RH  082%=      5-min Rain = 0
KRRS 130700Z 24012KT 01/M02 A3014 RMK A01 T00061022  RH  082%=      5-min Rain = 0
KRRS 130701Z 24011KT 01/M02 A3014 RMK A01 T00061022  RH  082%=      5-min Rain = 0
KRRS 130702Z 24011KT 01/M02 A3014 RMK A01 T00061022  RH  082%=      5-min Rain = 0
KRRS 130703Z 24011KT 01/M02 A3014 RMK A01 T00051022  RH  082%=      5-min Rain = 0
KRRS 130704Z 24012KT 01/M02 A3014 RMK A01 T00051022  RH  082%=      5-min Rain = 0
KRRS 130705Z 25012KT 01/M02 A3014 RMK A01 T00051023  RH  082%=      5-min Rain = 0
KRRS 130706Z 24011KT 01/M02 A3014 RMK A01 T00051023  RH  082%=      5-min Rain = 0
KRRS 130707Z 24011KT 01/M02 A3014 RMK A01 T00051023  RH  082%=      5-min Rain = 0
KRRS 130708Z 24011KT 00/M02 A3014 RMK A01 T00041023  RH  082%=      5-min Rain = 0
KRRS 130709Z 25011KT 00/M02 A3014 RMK A01 T00041023  RH  082%=      5-min Rain = 0
KRRS 130710Z 25011KT 00/M02 A3014 RMK A01 T00041023  RH  082%=      5-min Rain = 0
KRRS 130711Z 25011KT 00/M02 A3014 RMK A01 T00041023  RH  082%=      5-min Rain = 0
KRRS 130712Z 25011KT 00/M02 A3014 RMK A01 T00031023  RH  082%=      5-min Rain = 0
KRRS 130713Z 25011KT 00/M02 A3014 RMK A01 T00031023  RH  083%=      5-min Rain = 0
KRRS 130714Z 24011KT 00/M02 A3014 RMK A01 T00031023  RH  083%=      5-min Rain = 0
KRRS 130715Z 24012KT 00/M02 A3014 RMK A01 T00021023  RH  083%=      5-min Rain = 0
KRRS 130716Z 24012KT 00/M02 A3014 RMK A01 T00021023  RH  083%=      5-min Rain = 0
KRRS 130717Z 24012KT 00/M02 A3014 RMK A01 T00031023  RH  083%=      5-min Rain = 0
KRRS 130718Z 24013KT 00/M02 A3014 RMK A01 T00031023  RH  082%=      5-min Rain = 0
KRRS 130719Z 24012KT 00/M02 A3014 RMK A01 T00041023  RH  082%=      5-min Rain = 0
KRRS 130720Z 24012KT 00/M02 A3014 RMK A01 T00041023  RH  082%=      5-min Rain = 0
KRRS 130721Z 24012KT 01/M02 A3014 RMK A01 T00051023  RH  082%=      5-min Rain = 0
KRRS 130722Z 24013KT 01/M02 A3014 RMK A01 T00051023  RH  082%=      5-min Rain = 0
KRRS 130723Z 24013KT 01/M02 A3014 RMK A01 T00051023  RH  082%=      5-min Rain = 0
KRRS 130724Z 24012KT 01/M02 A3014 RMK A01 T00061023  RH  081%=      5-min Rain = 0
KRRS 130725Z 24012KT 01/M02 A3014 RMK A01 T00061023  RH  081%=      5-min Rain = 0
KRRS 130726Z 24012KT 01/M02 A3014 RMK A01 T00051023  RH  081%=      5-min Rain = 0
KRRS 130727Z 24012KT 01/M02 A3014 RMK A01 T00051023  RH  082%=      5-min Rain = 0
KRRS 130728Z 24011KT 01/M02 A3014 RMK A01 T00051023  RH  081%=      5-min Rain = 0
KRRS 130729Z 24011KT 00/M02 A3014 RMK A01 T00041024  RH  081%=      5-min Rain = 0
KRRS 130730Z 24011KT 00/M02 A3014 RMK A01 T00041024  RH  082%=      5-min Rain = 0
KRRS 130731Z 25011KT 00/M02 A3014 RMK A01 T00031024  RH  082%=      5-min Rain = 0
KRRS 130732Z 25011KT 00/M02 A3014 RMK A01 T00021024  RH  082%=      5-min Rain = 0
KRRS 130733Z 24011KT 00/M02 A3014 RMK A01 T00031024  RH  082%=      5-min Rain = 0
KRRS 130734Z 25010KT 00/M02 A3014 RMK A01 T00031024  RH  082%=      5-min Rain = 0
KRRS 130735Z 25011KT 00/M03 A3014 RMK A01 T00021025  RH  082%=      5-min Rain = 0
KRRS 130736Z 25011KT 00/M03 A3014 RMK A01 T00011025  RH  082%=      5-min Rain = 0
KRRS 130737Z 25011KT 00/M03 A3014 RMK A01 T00011025  RH  083%=      5-min Rain = 0
KRRS 130738Z 24011KT 00/M03 A3014 RMK A01 T00011025  RH  083%=      5-min Rain = 0
KRRS 130739Z 25011KT 00/M03 A3014 RMK A01 T00011025  RH  083%=      5-min Rain = 0
KRRS 130740Z 24012KT 00/M03 A3014 RMK A01 T00011025  RH  083%=      5-min Rain = 0
KRRS 130741Z 24013KT 00/M03 A3014 RMK A01 T00011025  RH  083%=      5-min Rain = 0
KRRS 130742Z 24012KT 00/M02 A3014 RMK A01 T00021024  RH  083%=      5-min Rain = 0
KRRS 130743Z 24012KT 00/M02 A3014 RMK A01 T00031024  RH  082%=      5-min Rain = 0
KRRS 130744Z 25013KT 00/M02 A3014 RMK A01 T00031024  RH  082%=      5-min Rain = 0
KRRS 130745Z 24013KT 00/M02 A3014 RMK A01 T00041024  RH  081%=      5-min Rain = 0
KRRS 130746Z 24013KT 01/M02 A3014 RMK A01 T00051023  RH  081%=      5-min Rain = 0
KRRS 130747Z 24013KT 01/M02 A3014 RMK A01 T00061023  RH  081%=      5-min Rain = 0
KRRS 130748Z 24013KT 01/M02 A3014 RMK A01 T00071023  RH  080%=      5-min Rain = 0
KRRS 130749Z 24014KT 01/M02 A3014 RMK A01 T00071023  RH  080%=      5-min Rain = 0
KRRS 130750Z 24013KT 01/M02 A3014 RMK A01 T00071024  RH  080%=      5-min Rain = 0
KRRS 130751Z 24013KT 01/M02 A3014 RMK A01 T00071024  RH  080%=      5-min Rain = 0
KRRS 130752Z 24013KT 01/M02 A3014 RMK A01 T00071024  RH  080%=      5-min Rain = 0
KRRS 130753Z 24012KT 01/M03 A3014 RMK A01 T00061025  RH  080%=      5-min Rain = 0
KRRS 130754Z 24013KT 01/M03 A3014 RMK A01 T00051025  RH  080%=      5-min Rain = 0
KRRS 130755Z 24012KT 01/M03 A3014 RMK A01 T00051025  RH  080%=      5-min Rain = 0
KRRS 130756Z 24013KT 00/M03 A3014 RMK A01 T00041026  RH  080%=      5-min Rain = 0
KRRS 130757Z 24014KT 00/M03 A3014 RMK A01 T00031026  RH  081%=      5-min Rain = 0
KRRS 130758Z 24014KT 00/M03 A3014 RMK A01 T00031026  RH  081%=      5-min Rain = 0
KRRS 130759Z 24014KT 00/M03 A3014 RMK A01 T00041026  RH  080%=      5-min Rain = 0
KRRS 130800Z 24015KT 01/M03 A3014 RMK A01 T00051026  RH  080%=      5-min Rain = 0
KRRS 130801Z 24015KT 01/M03 A3014 RMK A01 T00051026  RH  080%=      5-min Rain = 0
KRRS 130802Z 24014KT 01/M03 A3014 RMK A01 T00051026  RH  079%=      5-min Rain = 0
KRRS 130803Z 24014KT 01/M03 A3014 RMK A01 T00061027  RH  079%=      5-min Rain = 0
KRRS 130804Z 24013KT 01/M03 A3014 RMK A01 T00061027  RH  079%=      5-min Rain = 0
KRRS 130805Z 24013KT 01/M03 A3014 RMK A01 T00061027  RH  079%=      5-min Rain = 0
KRRS 130806Z 24012KT 01/M03 A3014 RMK A01 T00051027  RH  079%=      5-min Rain = 0
KRRS 130807Z 25011KT 01/M03 A3014 RMK A01 T00051028  RH  078%=      5-min Rain = 0
KRRS 130808Z 24011KT 01/M03 A3014 RMK A01 T00051028  RH  078%=      5-min Rain = 0
KRRS 130809Z 25011KT 01/M03 A3014 RMK A01 T00051028  RH  078%=      5-min Rain = 0
KRRS 130810Z 24011KT 01/M03 A3014 RMK A01 T00051029  RH  078%=      5-min Rain = 0
KRRS 130811Z 24010KT 01/M03 A3014 RMK A01 T00051029  RH  078%=      5-min Rain = 0
KRRS 130812Z 24010KT 00/M03 A3014 RMK A01 T00041029  RH  078%=      5-min Rain = 0
KRRS 130813Z 24009KT 01/M03 A3014 RMK A01 T00051029  RH  078%=      5-min Rain = 0
KRRS 130814Z 24010KT 01/M03 A3014 RMK A01 T00051030  RH  078%=      5-min Rain = 0
KRRS 130815Z 24009KT 01/M03 A3014 RMK A01 T00051030  RH  078%=      5-min Rain = 0
KRRS 130816Z 24009KT 00/M03 A3014 RMK A01 T00041030  RH  078%=      5-min Rain = 0
KRRS 130817Z 24009KT 00/M03 A3014 RMK A01 T00031031  RH  078%=      5-min Rain = 0
KRRS 130818Z 24010KT 00/M03 A3014 RMK A01 T00031031  RH  078%=      5-min Rain = 0
KRRS 130819Z 23010KT 00/M03 A3014 RMK A01 T00031032  RH  078%=      5-min Rain = 0
KRRS 130820Z 23010KT 00/M03 A3014 RMK A01 T00031032  RH  077%=      5-min Rain = 0
KRRS 130821Z 23010KT 00/M03 A3014 RMK A01 T00041032  RH  077%=      5-min Rain = 0
KRRS 130822Z 23010KT 01/M03 A3014 RMK A01 T00051031  RH  077%=      5-min Rain = 0
KRRS 130823Z 23010KT 01/M03 A3014 RMK A01 T00061031  RH  076%=      5-min Rain = 0
KRRS 130824Z 23011KT 01/M03 A3013 RMK A01 T00061031  RH  076%=      5-min Rain = 0
KRRS 130825Z 23011KT 01/M03 A3013 RMK A01 T00071031  RH  076%=      5-min Rain = 0
KRRS 130826Z 23011KT 01/M03 A3013 RMK A01 T00081031  RH  075%=      5-min Rain = 0
KRRS 130827Z 23012KT 01/M03 A3013 RMK A01 T00091031  RH  075%=      5-min Rain = 0
KRRS 130828Z 23012KT 01/M03 A3013 RMK A01 T00101031  RH  074%=      5-min Rain = 0
KRRS 130829Z 23013KT 01/M03 A3013 RMK A01 T00111032  RH  073%=      5-min Rain = 0
KRRS 130830Z 23013KT 01/M03 A3013 RMK A01 T00121032  RH  073%=      5-min Rain = 0
KRRS 130831Z 23012KT 01/M03 A3013 RMK A01 T00141032  RH  072%=      5-min Rain = 0
KRRS 130832Z 23013KT 02/M03 A3013 RMK A01 T00151032  RH  071%=      5-min Rain = 0
KRRS 130833Z 23012KT 02/M03 A3013 RMK A01 T00151032  RH  071%=      5-min Rain = 0
KRRS 130834Z 23012KT 02/M03 A3013 RMK A01 T00151032  RH  071%=      5-min Rain = 0
KRRS 130835Z 23012KT 02/M03 A3013 RMK A01 T00151032  RH  071%=      5-min Rain = 0
KRRS 130836Z 23013KT 01/M03 A3013 RMK A01 T00141032  RH  071%=      5-min Rain = 0
KRRS 130837Z 23012KT 01/M03 A3013 RMK A01 T00141033  RH  071%=      5-min Rain = 0
KRRS 130838Z 24012KT 02/M03 A3013 RMK A01 T00151033  RH  071%=      5-min Rain = 0
KRRS 130839Z 24013KT 01/M03 A3013 RMK A01 T00141033  RH  071%=      5-min Rain = 0
KRRS 130840Z 24012KT 01/M03 A3013 RMK A01 T00131033  RH  071%=      5-min Rain = 0
KRRS 130841Z 24011KT 01/M03 A3013 RMK A01 T00121033  RH  072%=      5-min Rain = 0
KRRS 130842Z 23012KT 01/M03 A3013 RMK A01 T00111033  RH  072%=      5-min Rain = 0
KRRS 130843Z 23013KT 01/M03 A3013 RMK A01 T00111033  RH  072%=      5-min Rain = 0
KRRS 130844Z 23013KT 01/M03 A3013 RMK A01 T00121033  RH  072%=      5-min Rain = 0
KRRS 130845Z 24013KT 01/M03 A3013 RMK A01 T00131033  RH  071%=      5-min Rain = 0
KRRS 130846Z 23012G17KT 01/M03 A3013 RMK A01 T00141033  RH  071%=      5-min Rain = 0
KRRS 130847Z 23013KT 01/M03 A3013 RMK A01 T00141033  RH  071%=      5-min Rain = 0
KRRS 130848Z 23013KT 02/M03 A3013 RMK A01 T00151033  RH  070%=      5-min Rain = 0
KRRS 130849Z 23013KT 02/M03 A3013 RMK A01 T00151033  RH  070%=      5-min Rain = 0
KRRS 130850Z 24012KT 02/M03 A3013 RMK A01 T00151033  RH  070%=      5-min Rain = 0
KRRS 130851Z 23013KT 02/M03 A3013 RMK A01 T00161033  RH  070%=      5-min Rain = 0
KRRS 130852Z 24012KT 02/M03 A3013 RMK A01 T00151033  RH  070%=      5-min Rain = 0
KRRS 130853Z 24012KT 01/M03 A3013 RMK A01 T00141033  RH  071%=      5-min Rain = 0
KRRS 130854Z 24011KT 01/M03 A3013 RMK A01 T00131033  RH  071%=      5-min Rain = 0
KRRS 130855Z 24011KT 01/M03 A3013 RMK A01 T00121033  RH  072%=      5-min Rain = 0
KRRS 130856Z 24011KT 01/M03 A3013 RMK A01 T00101033  RH  073%=      5-min Rain = 0
KRRS 130857Z 24012KT 01/M03 A3013 RMK A01 T00091034  RH  073%=      5-min Rain = 0
KRRS 130858Z 24012KT 01/M03 A3012 RMK A01 T00081033  RH  074%=      5-min Rain = 0
KRRS 130859Z 24012KT 01/M03 A3012 RMK A01 T00081033  RH  074%=      5-min Rain = 0
KRRS 130900Z 24012KT 01/M03 A3012 RMK A01 T00081033  RH  074%=      5-min Rain = 0
KRRS 130901Z 24012KT 01/M03 A3012 RMK A01 T00091033  RH  074%=      5-min Rain = 0
KRRS 130902Z 24012KT 01/M03 A3012 RMK A01 T00091033  RH  073%=      5-min Rain = 0
KRRS 130903Z 24012KT 01/M03 A3012 RMK A01 T00101033  RH  073%=      5-min Rain = 0
KRRS 130904Z 24012KT 01/M03 A3012 RMK A01 T00111033  RH  073%=      5-min Rain = 0
KRRS 130905Z 24012KT 01/M03 A3012 RMK A01 T00111033  RH  072%=      5-min Rain = 0
KRRS 130906Z 24011KT 01/M03 A3012 RMK A01 T00111033  RH  072%=      5-min Rain = 0
KRRS 130907Z 24012KT 01/M03 A3012 RMK A01 T00111033  RH  072%=      5-min Rain = 0
KRRS 130908Z 24012KT 01/M03 A3012 RMK A01 T00111033  RH  072%=      5-min Rain = 0
KRRS 130909Z 24012KT 01/M03 A3012 RMK A01 T00111033  RH  072%=      5-min Rain = 0
KRRS 130910Z 24011KT 01/M03 A3012 RMK A01 T00121033  RH  072%=      5-min Rain = 0
KRRS 130911Z 23011KT 01/M03 A3012 RMK A01 T00121033  RH  072%=      5-min Rain = 0
KRRS 130912Z 23010KT 01/M03 A3012 RMK A01 T00111034  RH  072%=      5-min Rain = 0
KRRS 130913Z 23012KT 01/M03 A3012 RMK A01 T00091034  RH  073%=      5-min Rain = 0
KRRS 130914Z 23012KT 01/M03 A3012 RMK A01 T00091034  RH  073%=      5-min Rain = 0
KRRS 130915Z 23012KT 01/M03 A3012 RMK A01 T00101034  RH  073%=      5-min Rain = 0
KRRS 130916Z 23013KT 01/M03 A3012 RMK A01 T00121034  RH  072%=      5-min Rain = 0
KRRS 130917Z 23012KT 01/M03 A3012 RMK A01 T00141033  RH  071%=      5-min Rain = 0
KRRS 130918Z 23013KT 02/M03 A3012 RMK A01 T00161033  RH  070%=      5-min Rain = 0
KRRS 130919Z 23013KT 02/M03 A3012 RMK A01 T00191033  RH  068%=      5-min Rain = 0
KRRS 130920Z 23014KT 02/M03 A3012 RMK A01 T00221033  RH  067%=      5-min Rain = 0
KRRS 130921Z 23012KT 02/M03 A3012 RMK A01 T00231033  RH  066%=      5-min Rain = 0
KRRS 130922Z 23014KT 02/M03 A3012 RMK A01 T00241033  RH  066%=      5-min Rain = 0
KRRS 130923Z 23014KT 02/M03 A3011 RMK A01 T00231033  RH  066%=      5-min Rain = 0
KRRS 130924Z 23014KT 02/M03 A3011 RMK A01 T00241034  RH  066%=      5-min Rain = 0
KRRS 130925Z 23013KT 02/M03 A3011 RMK A01 T00241034  RH  066%=      5-min Rain = 0
KRRS 130926Z 23012KT 02/M03 A3011 RMK A01 T00231034  RH  066%=      5-min Rain = 0
KRRS 130927Z 23012KT 02/M03 A3011 RMK A01 T00211034  RH  067%=      5-min Rain = 0
KRRS 130928Z 23012KT 02/M03 A3011 RMK A01 T00191034  RH  068%=      5-min Rain = 0
KRRS 130929Z 23011KT 02/M03 A3011 RMK A01 T00181034  RH  068%=      5-min Rain = 0
KRRS 130930Z 24012KT 02/M03 A3011 RMK A01 T00161034  RH  069%=      5-min Rain = 0
KRRS 130931Z 24012KT 02/M03 A3011 RMK A01 T00151034  RH  070%=      5-min Rain = 0
KRRS 130932Z 23012KT 02/M03 A3011 RMK A01 T00151034  RH  070%=      5-min Rain = 0
KRRS 130933Z 23012KT 02/M03 A3011 RMK A01 T00151034  RH  070%=      5-min Rain = 0
KRRS 130934Z 24012KT 01/M03 A3011 RMK A01 T00141034  RH  071%=      5-min Rain = 0
KRRS 130935Z 24011KT 01/M03 A3011 RMK A01 T00131034  RH  071%=      5-min Rain = 0
KRRS 130936Z 24011KT 01/M03 A3011 RMK A01 T00111034  RH  072%=      5-min Rain = 0
KRRS 130937Z 23013KT 01/M03 A3011 RMK A01 T00101034  RH  072%=      5-min Rain = 0
KRRS 130938Z 24012KT 01/M03 A3011 RMK A01 T00101034  RH  072%=      5-min Rain = 0
KRRS 130939Z 23013KT 01/M03 A3011 RMK A01 T00101034  RH  072%=      5-min Rain = 0
KRRS 130940Z 23013KT 01/M04 A3011 RMK A01 T00101035  RH  072%=      5-min Rain = 0
KRRS 130941Z 23013KT 01/M04 A3011 RMK A01 T00101035  RH  072%=      5-min Rain = 0
KRRS 130942Z 24013KT 01/M04 A3011 RMK A01 T00101035  RH  072%=      5-min Rain = 0
KRRS 130943Z 24013KT 01/M04 A3011 RMK A01 T00101035  RH  072%=      5-min Rain = 0
KRRS 130944Z 24013KT 01/M04 A3011 RMK A01 T00101035  RH  072%=      5-min Rain = 0
KRRS 130945Z 24013KT 01/M04 A3011 RMK A01 T00101035  RH  072%=      5-min Rain = 0
KRRS 130946Z 24013KT 01/M04 A3011 RMK A01 T00101036  RH  072%=      5-min Rain = 0
KRRS 130947Z 24012KT 01/M04 A3011 RMK A01 T00101035  RH  072%=      5-min Rain = 0
KRRS 130948Z 24013KT 01/M04 A3011 RMK A01 T00091035  RH  072%=      5-min Rain = 0
KRRS 130949Z 24013KT 01/M04 A3011 RMK A01 T00091035  RH  072%=      5-min Rain = 0
KRRS 130950Z 24012KT 01/M04 A3011 RMK A01 T00081036  RH  073%=      5-min Rain = 0
KRRS 130951Z 24012KT 01/M04 A3011 RMK A01 T00071036  RH  073%=      5-min Rain = 0
KRRS 130952Z 24013KT 01/M04 A3011 RMK A01 T00071036  RH  073%=      5-min Rain = 0
KRRS 130953Z 24013KT 01/M04 A301 RMK A01 T00061036  RH  074%=      5-min Rain = 0
KRRS 130954Z 24013KT 01/M04 A301 RMK A01 T00061036  RH  074%=      5-min Rain = 0
KRRS 130955Z 24014KT 01/M04 A301 RMK A01 T00051036  RH  074%=      5-min Rain = 0
KRRS 130956Z 24014KT 01/M04 A301 RMK A01 T00051036  RH  074%=      5-min Rain = 0
KRRS 130957Z 24015KT 01/M04 A301 RMK A01 T00051037  RH  073%=      5-min Rain = 0
KRRS 130958Z 23014KT 01/M04 A301 RMK A01 T00061037  RH  073%=      5-min Rain = 0
KRRS 130959Z 24014KT 01/M04 A301 RMK A01 T00061037  RH  073%=      5-min Rain = 0
KRRS 131000Z 23015KT 01/M04 A301 RMK A01 T00061038  RH  072%=      5-min Rain = 0
KRRS 131001Z 23015KT 01/M04 A301 RMK A01 T00081038  RH  071%=      5-min Rain = 0
KRRS 131002Z 23016KT 01/M04 A301 RMK A01 T00101039  RH  070%=      5-min Rain = 0
KRRS 131003Z 23016KT 01/M04 A301 RMK A01 T00131040  RH  068%=      5-min Rain = 0
KRRS 131004Z 23016KT 02/M04 A301 RMK A01 T00151040  RH  067%=      5-min Rain = 0
KRRS 131005Z 23017KT 02/M04 A301 RMK A01 T00171041  RH  066%=      5-min Rain = 0
KRRS 131006Z 23017G22KT 02/M04 A301 RMK A01 T00181041  RH  065%=      5-min Rain = 0
KRRS 131007Z 23016KT 02/M04 A301 RMK A01 T00191042  RH  064%=      5-min Rain = 0
KRRS 131008Z 23016KT 02/M04 A301 RMK A01 T00201041  RH  064%=      5-min Rain = 0
KRRS 131009Z 23016KT 02/M04 A301 RMK A01 T00201042  RH  064%=      5-min Rain = 0
KRRS 131010Z 23015KT 02/M04 A301 RMK A01 T00191042  RH  064%=      5-min Rain = 0
KRRS 131011Z 23015G22KT 02/M04 A301 RMK A01 T00191042  RH  064%=      5-min Rain = 0
KRRS 131012Z 23015G22KT 02/M04 A301 RMK A01 T00201042  RH  064%=      5-min Rain = 0
KRRS 131013Z 23015KT 02/M04 A301 RMK A01 T00201042  RH  064%=      5-min Rain = 0
KRRS 131014Z 23016KT 02/M04 A301 RMK A01 T00201041  RH  064%=      5-min Rain = 0
KRRS 131015Z 23015KT 02/M04 A3009 RMK A01 T00201041  RH  064%=      5-min Rain = 0
KRRS 131016Z 23015KT 02/M04 A3009 RMK A01 T00201041  RH  064%=      5-min Rain = 0
KRRS 131017Z 23014KT 02/M04 A3009 RMK A01 T00191041  RH  064%=      5-min Rain = 0
KRRS 131018Z 23015KT 02/M04 A3009 RMK A01 T00181041  RH  065%=      5-min Rain = 0
KRRS 131019Z 23014KT 02/M04 A3009 RMK A01 T00171041  RH  065%=      5-min Rain = 0
KRRS 131020Z 23015KT 02/M04 A3009 RMK A01 T00171040  RH  066%=      5-min Rain = 0
KRRS 131021Z 23014KT 02/M04 A3009 RMK A01 T00161041  RH  066%=      5-min Rain = 0
KRRS 131022Z 23013KT 02/M04 A3009 RMK A01 T00161041  RH  066%=      5-min Rain = 0
KRRS 131023Z 23013G19KT 02/M04 A3009 RMK A01 T00151041  RH  067%=      5-min Rain = 0
KRRS 131024Z 23013KT 01/M04 A3009 RMK A01 T00141041  RH  067%=      5-min Rain = 0
KRRS 131025Z 23012KT 01/M04 A3009 RMK A01 T00141041  RH  067%=      5-min Rain = 0
KRRS 131026Z 23013KT 01/M04 A3009 RMK A01 T00131041  RH  067%=      5-min Rain = 0
KRRS 131027Z 23014G19KT 01/M04 A3009 RMK A01 T00131041  RH  067%=      5-min Rain = 0
KRRS 131028Z 23013KT 01/M04 A3009 RMK A01 T00131041  RH  067%=      5-min Rain = 0
KRRS 131029Z 23012KT 01/M04 A3009 RMK A01 T00131041  RH  067%=      5-min Rain = 0
KRRS 131030Z 23013KT 01/M04 A3009 RMK A01 T00121041  RH  068%=      5-min Rain = 0
KRRS 131031Z 23012KT 01/M04 A3009 RMK A01 T00111041  RH  068%=      5-min Rain = 0
KRRS 131032Z 23012KT 01/M04 A3009 RMK A01 T00111041  RH  068%=      5-min Rain = 0
KRRS 131033Z 23012KT 01/M04 A3009 RMK A01 T00101041  RH  068%=      5-min Rain = 0
KRRS 131034Z 23012KT 01/M04 A3009 RMK A01 T00101041  RH  068%=      5-min Rain = 0
KRRS 131035Z 23014KT 01/M04 A3009 RMK A01 T00101042  RH  069%=      5-min Rain = 0
KRRS 131036Z 23013KT 01/M04 A3008 RMK A01 T00101042  RH  068%=      5-min Rain = 0
KRRS 131037Z 23013KT 01/M04 A3008 RMK A01 T00101042  RH  068%=      5-min Rain = 0
KRRS 131038Z 23014G20KT 01/M04 A3008 RMK A01 T00101042  RH  068%=      5-min Rain = 0
KRRS 131039Z 23014G19KT 01/M04 A3008 RMK A01 T00111042  RH  068%=      5-min Rain = 0
KRRS 131040Z 23015G20KT 01/M04 A3008 RMK A01 T00111043  RH  067%=      5-min Rain = 0
KRRS 131041Z 23014KT 01/M04 A3008 RMK A01 T00121043  RH  067%=      5-min Rain = 0
KRRS 131042Z 23014KT 01/M04 A3008 RMK A01 T00121043  RH  067%=      5-min Rain = 0
KRRS 131043Z 23015KT 01/M04 A3008 RMK A01 T00121042  RH  067%=      5-min Rain = 0
KRRS 131044Z 23014KT 01/M04 A3008 RMK A01 T00121043  RH  067%=      5-min Rain = 0
KRRS 131045Z 23014G19KT 01/M04 A3008 RMK A01 T00121043  RH  067%=      5-min Rain = 0
KRRS 131046Z 23012KT 01/M04 A3008 RMK A01 T00121043  RH  067%=      5-min Rain = 0
KRRS 131047Z 23012KT 01/M04 A3008 RMK A01 T00111043  RH  067%=      5-min Rain = 0
KRRS 131048Z 23013KT 01/M04 A3007 RMK A01 T00111043  RH  068%=      5-min Rain = 0
KRRS 131049Z 23015G20KT 01/M04 A3007 RMK A01 T00111043  RH  068%=      5-min Rain = 0
KRRS 131050Z 23015KT 01/M04 A3007 RMK A01 T00111043  RH  068%=      5-min Rain = 0
KRRS 131051Z 23013KT 01/M04 A3007 RMK A01 T00111042  RH  068%=      5-min Rain = 0
KRRS 131052Z 23013KT 01/M04 A3007 RMK A01 T00101042  RH  068%=      5-min Rain = 0
KRRS 131053Z 23013KT 01/M04 A3007 RMK A01 T00091042  RH  068%=      5-min Rain = 0
KRRS 131054Z 23014KT 01/M04 A3007 RMK A01 T00091043  RH  069%=      5-min Rain = 0
KRRS 131055Z 23012KT 01/M04 A3007 RMK A01 T00091042  RH  069%=      5-min Rain = 0
KRRS 131056Z 23013KT 01/M04 A3007 RMK A01 T00081043  RH  069%=      5-min Rain = 0
KRRS 131057Z 23013KT 01/M04 A3007 RMK A01 T00081043  RH  069%=      5-min Rain = 0
KRRS 131058Z 23013KT 01/M04 A3007 RMK A01 T00081043  RH  069%=      5-min Rain = 0
KRRS 131059Z 23014KT 01/M04 A3007 RMK A01 T00081043  RH  069%=      5-min Rain = 0
KRRS 131100Z 23013KT 01/M04 A3007 RMK A01 T00081043  RH  069%=      5-min Rain = 0
KRRS 131101Z 23013KT 01/M04 A3007 RMK A01 T00081043  RH  068%=      5-min Rain = 0
KRRS 131102Z 23013KT 01/M04 A3007 RMK A01 T00081043  RH  068%=      5-min Rain = 0
KRRS 131103Z 23014KT 01/M04 A3007 RMK A01 T00081044  RH  068%=      5-min Rain = 0
KRRS 131104Z 23014KT 01/M04 A3007 RMK A01 T00091044  RH  068%=      5-min Rain = 0
KRRS 131105Z 23013KT 01/M04 A3007 RMK A01 T00101044  RH  067%=      5-min Rain = 0
KRRS 131106Z 23012KT 01/M04 A3007 RMK A01 T00101044  RH  067%=      5-min Rain = 0
KRRS 131107Z 23012KT 01/M04 A3007 RMK A01 T00091044  RH  067%=      5-min Rain = 0
KRRS 131108Z 23012KT 01/M04 A3007 RMK A01 T00091044  RH  067%=      5-min Rain = 0
KRRS 131109Z 23012KT 01/M05 A3007 RMK A01 T00091045  RH  067%=      5-min Rain = 0
KRRS 131110Z 23012KT 01/M05 A3007 RMK A01 T00091045  RH  067%=      5-min Rain = 0
KRRS 131111Z 23013KT 01/M05 A3007 RMK A01 T00081045  RH  067%=      5-min Rain = 0
KRRS 131112Z 23013KT 01/M05 A3007 RMK A01 T00091045  RH  067%=      5-min Rain = 0
KRRS 131113Z 23013KT 01/M05 A3006 RMK A01 T00111046  RH  066%=      5-min Rain = 0
KRRS 131114Z 23012KT 01/M05 A3006 RMK A01 T00121046  RH  066%=      5-min Rain = 0
KRRS 131115Z 23013KT 01/M05 A3006 RMK A01 T00111046  RH  066%=      5-min Rain = 0
KRRS 131116Z 23014KT 01/M05 A3006 RMK A01 T00111046  RH  065%=      5-min Rain = 0
KRRS 131117Z 23013KT 01/M05 A3006 RMK A01 T00121046  RH  065%=      5-min Rain = 0
KRRS 131118Z 23013KT 01/M05 A3006 RMK A01 T00131047  RH  064%=      5-min Rain = 0
KRRS 131119Z 23014KT 01/M05 A3006 RMK A01 T00141047  RH  064%=      5-min Rain = 0
KRRS 131120Z 23013KT 02/M05 A3006 RMK A01 T00151047  RH  064%=      5-min Rain = 0
KRRS 131121Z 23012G17KT 02/M05 A3006 RMK A01 T00151047  RH  063%=      5-min Rain = 0
KRRS 131122Z 23011KT 01/M05 A3006 RMK A01 T00141047  RH  064%=      5-min Rain = 0
KRRS 131123Z 22010KT 01/M05 A3006 RMK A01 T00111047  RH  065%=      5-min Rain = 0
KRRS 131124Z 22011KT 01/M05 A3006 RMK A01 T00061048  RH  067%=      5-min Rain = 0
KRRS 131125Z 22012KT 00/M05 A3006 RMK A01 T00031048  RH  069%=      5-min Rain = 0
KRRS 131126Z 22012KT 00/M05 A3006 RMK A01 T00021047  RH  069%=      5-min Rain = 0
KRRS 131127Z 22013KT 00/M05 A3006 RMK A01 T00011047  RH  070%=      5-min Rain = 0
KRRS 131128Z 22012KT M00/M05 A3006 RMK A01 T10011047  RH  071%=      5-min Rain = 0
KRRS 131129Z 22012KT M00/M05 A3006 RMK A01 T10021047  RH  072%=      5-min Rain = 0
KRRS 131130Z 22012KT M00/M05 A3006 RMK A01 T10031046  RH  072%=      5-min Rain = 0
KRRS 131131Z 23012KT M00/M05 A3006 RMK A01 T10031046  RH  073%=      5-min Rain = 0
KRRS 131132Z 23012KT M00/M05 A3006 RMK A01 T10031046  RH  073%=      5-min Rain = 0
KRRS 131133Z 23012KT M00/M05 A3006 RMK A01 T10031047  RH  072%=      5-min Rain = 0
KRRS 131134Z 23012KT M00/M05 A3006 RMK A01 T10031047  RH  072%=      5-min Rain = 0
KRRS 131135Z 23012KT M00/M05 A3006 RMK A01 T10031046  RH  073%=      5-min Rain = 0
KRRS 131136Z 22012KT M00/M05 A3006 RMK A01 T10031046  RH  073%=      5-min Rain = 0
KRRS 131137Z 22012KT M00/M05 A3006 RMK A01 T10031046  RH  073%=      5-min Rain = 0
KRRS 131138Z 23014KT M00/M05 A3006 RMK A01 T10041046  RH  073%=      5-min Rain = 0
KRRS 131139Z 23012G18KT 00/05 A3006 RMK A01 T00000-46  RH  071%=      5-min Rain = 0
KRRS 131140Z 23014KT 00/M05 A3006 RMK A01 T00021047  RH  070%=      5-min Rain = 0
KRRS 131141Z 23013KT 00/M05 A3006 RMK A01 T00031047  RH  069%=      5-min Rain = 0
KRRS 131142Z 23014KT 00/M05 A3006 RMK A01 T00041047  RH  069%=      5-min Rain = 0
KRRS 131143Z 23013KT 01/M05 A3006 RMK A01 T00061047  RH  067%=      5-min Rain = 0
KRRS 131144Z 23014KT 01/M05 A3006 RMK A01 T00081047  RH  067%=      5-min Rain = 0
KRRS 131145Z 23013KT 01/M05 A3006 RMK A01 T00081048  RH  066%=      5-min Rain = 0
KRRS 131146Z 23014KT 01/M05 A3006 RMK A01 T00081048  RH  066%=      5-min Rain = 0
KRRS 131147Z 23013KT 01/M05 A3006 RMK A01 T00091048  RH  066%=      5-min Rain = 0
KRRS 131148Z 23014KT 01/M05 A3006 RMK A01 T00091048  RH  066%=      5-min Rain = 0
KRRS 131149Z 23014KT 01/M05 A3006 RMK A01 T00101048  RH  066%=      5-min Rain = 0
KRRS 131150Z 23013KT 01/M05 A3006 RMK A01 T00111047  RH  065%=      5-min Rain = 0
KRRS 131151Z 23013KT 01/M05 A3006 RMK A01 T00101047  RH  065%=      5-min Rain = 0
KRRS 131152Z 23013KT 01/M05 A3006 RMK A01 T00101048  RH  065%=      5-min Rain = 0
KRRS 131153Z 23013KT 01/M05 A3006 RMK A01 T00101048  RH  065%=      5-min Rain = 0
KRRS 131154Z 23012KT 01/M05 A3006 RMK A01 T00091048  RH  066%=      5-min Rain = 0
KRRS 131155Z 23012KT 01/M05 A3006 RMK A01 T00091047  RH  066%=      5-min Rain = 0
KRRS 131156Z 23012KT 01/M05 A3006 RMK A01 T00091048  RH  066%=      5-min Rain = 0
KRRS 131157Z 23012KT 01/M05 A3006 RMK A01 T00081048  RH  066%=      5-min Rain = 0
KRRS 131158Z 23012KT 01/M05 A3006 RMK A01 T00081048  RH  066%=      5-min Rain = 0
KRRS 131159Z 23012KT 01/M05 A3006 RMK A01 T00071048  RH  066%=      5-min Rain = 0
KRRS 131200Z 23011KT 01/M05 A3006 RMK A01 T00081048  RH  066%=      5-min Rain = 0
KRRS 131201Z 23012KT 01/M05 A3006 RMK A01 T00081049  RH  066%=      5-min Rain = 0
KRRS 131202Z 23013KT 01/M05 A3006 RMK A01 T00081049  RH  066%=      5-min Rain = 0
KRRS 131203Z 23013KT 01/M05 A3006 RMK A01 T00081049  RH  066%=      5-min Rain = 0
KRRS 131204Z 23013KT 01/M05 A3006 RMK A01 T00101049  RH  065%=      5-min Rain = 0
KRRS 131205Z 23012KT 01/M05 A3006 RMK A01 T00111049  RH  064%=      5-min Rain = 0
KRRS 131206Z 23013KT 01/M05 A3006 RMK A01 T00121049  RH  064%=      5-min Rain = 0
KRRS 131207Z 23012KT 01/M05 A3006 RMK A01 T00121050  RH  064%=      5-min Rain = 0
KRRS 131208Z 23011KT 01/M05 A3006 RMK A01 T00121050  RH  063%=      5-min Rain = 0
KRRS 131209Z 23012G17KT 01/M05 A3006 RMK A01 T00121050  RH  064%=      5-min Rain = 0
KRRS 131210Z 23012KT 01/M05 A3006 RMK A01 T00121050  RH  063%=      5-min Rain = 0
KRRS 131211Z 23014KT 01/M05 A3006 RMK A01 T00131051  RH  062%=      5-min Rain = 0
KRRS 131212Z 23013KT 02/M05 A3006 RMK A01 T00151051  RH  062%=      5-min Rain = 0
KRRS 131213Z 23013KT 02/M05 A3006 RMK A01 T00151051  RH  062%=      5-min Rain = 0
KRRS 131214Z 23013G18KT 02/M05 A3006 RMK A01 T00151051  RH  061%=      5-min Rain = 0
KRRS 131215Z 23012KT 02/M05 A3006 RMK A01 T00151051  RH  061%=      5-min Rain = 0
KRRS 131216Z 23012KT 02/M05 A3006 RMK A01 T00151051  RH  061%=      5-min Rain = 0
KRRS 131217Z 23013KT 01/M05 A3006 RMK A01 T00141052  RH  061%=      5-min Rain = 0
KRRS 131218Z 23011KT 02/M05 A3006 RMK A01 T00151052  RH  061%=      5-min Rain = 0
KRRS 131219Z 23011KT 02/M05 A3006 RMK A01 T00151052  RH  061%=      5-min Rain = 0
KRRS 131220Z 23010KT 02/M05 A3006 RMK A01 T00151052  RH  061%=      5-min Rain = 0
KRRS 131221Z 23011KT 02/M05 A3006 RMK A01 T00151052  RH  061%=      5-min Rain = 0
KRRS 131222Z 23010KT 02/M05 A3006 RMK A01 T00151052  RH  061%=      5-min Rain = 0
KRRS 131223Z 23010KT 02/M05 A3006 RMK A01 T00151052  RH  061%=      5-min Rain = 0
KRRS 131224Z 23011KT 01/M05 A3006 RMK A01 T00141053  RH  061%=      5-min Rain = 0
KRRS 131225Z 23011KT 02/M05 A3006 RMK A01 T00151053  RH  061%=      5-min Rain = 0
KRRS 131226Z 23010KT 02/M05 A3006 RMK A01 T00151054  RH  060%=      5-min Rain = 0
KRRS 131227Z 23010KT 02/M05 A3006 RMK A01 T00161054  RH  060%=      5-min Rain = 0
KRRS 131228Z 23009KT 02/M06 A3006 RMK A01 T00161055  RH  059%=      5-min Rain = 0
KRRS 131229Z 23009G14KT 02/M06 A3006 RMK A01 T00171055  RH  059%=      5-min Rain = 0
KRRS 131230Z 23008KT 02/M06 A3006 RMK A01 T00181055  RH  058%=      5-min Rain = 0
KRRS 131231Z 23010KT 02/M06 A3006 RMK A01 T00181055  RH  058%=      5-min Rain = 0
KRRS 131232Z 23009KT 02/M06 A3006 RMK A01 T00181056  RH  058%=      5-min Rain = 0
KRRS 131233Z 23009KT 02/M06 A3006 RMK A01 T00191056  RH  058%=      5-min Rain = 0
KRRS 131234Z 23009KT 02/M06 A3006 RMK A01 T00191056  RH  058%=      5-min Rain = 0
KRRS 131235Z 23009KT 02/M06 A3006 RMK A01 T00191056  RH  057%=      5-min Rain = 0
KRRS 131236Z 23008KT 02/M06 A3006 RMK A01 T00191056  RH  058%=      5-min Rain = 0
KRRS 131237Z 23008KT 02/M06 A3006 RMK A01 T00181056  RH  058%=      5-min Rain = 0
KRRS 131238Z 23007KT 02/M06 A3006 RMK A01 T00171057  RH  058%=      5-min Rain = 0
KRRS 131239Z 23008KT 02/M06 A3006 RMK A01 T00181056  RH  058%=      5-min Rain = 0
KRRS 131240Z 23008KT 02/M06 A3006 RMK A01 T00181056  RH  058%=      5-min Rain = 0
KRRS 131241Z 22008KT 02/M06 A3006 RMK A01 T00171056  RH  058%=      5-min Rain = 0
KRRS 131242Z 23008KT 02/M06 A3006 RMK A01 T00171056  RH  058%=      5-min Rain = 0
KRRS 131243Z 23009KT 02/M06 A3006 RMK A01 T00171057  RH  058%=      5-min Rain = 0
KRRS 131244Z 23009KT 02/M06 A3006 RMK A01 T00191057  RH  057%=      5-min Rain = 0
KRRS 131245Z 23010KT 02/M06 A3006 RMK A01 T00201057  RH  057%=      5-min Rain = 0
KRRS 131246Z 23009KT 02/M06 A3006 RMK A01 T00211057  RH  056%=      5-min Rain = 0
KRRS 131247Z 23010KT 02/M06 A3006 RMK A01 T00221057  RH  056%=      5-min Rain = 0
KRRS 131248Z 23012G17KT 02/M06 A3006 RMK A01 T00211057  RH  056%=      5-min Rain = 0
KRRS 131249Z 23011KT 02/M06 A3006 RMK A01 T00231057  RH  056%=      5-min Rain = 0
KRRS 131250Z 23011G16KT 02/M06 A3006 RMK A01 T00231057  RH  055%=      5-min Rain = 0
KRRS 131251Z 23011KT 02/M06 A3006 RMK A01 T00241057  RH  055%=      5-min Rain = 0
KRRS 131252Z 23012KT 02/M06 A3006 RMK A01 T00241057  RH  055%=      5-min Rain = 0
KRRS 131253Z 23011KT 02/M06 A3006 RMK A01 T00241058  RH  055%=      5-min Rain = 0
KRRS 131254Z 23011KT 02/M06 A3006 RMK A01 T00241057  RH  055%=      5-min Rain = 0
KRRS 131255Z 23011G16KT 02/M06 A3006 RMK A01 T00231057  RH  055%=      5-min Rain = 0
KRRS 131256Z 23012KT 02/M06 A3006 RMK A01 T00231057  RH  055%=      5-min Rain = 0
KRRS 131257Z 23010KT 02/M06 A3006 RMK A01 T00231058  RH  055%=      5-min Rain = 0
KRRS 131258Z 23011G16KT 02/M06 A3006 RMK A01 T00231057  RH  055%=      5-min Rain = 0
KRRS 131259Z 23012KT 02/M06 A3006 RMK A01 T00231057  RH  056%=      5-min Rain = 0
KRRS 131300Z 23010KT 02/M06 A3006 RMK A01 T00221057  RH  056%=      5-min Rain = 0
KRRS 131301Z 23010KT 02/M06 A3006 RMK A01 T00211057  RH  056%=      5-min Rain = 0
KRRS 131302Z 22008KT 02/M06 A3006 RMK A01 T00211057  RH  056%=      5-min Rain = 0
KRRS 131303Z 23010G16KT 02/M06 A3006 RMK A01 T00211058  RH  056%=      5-min Rain = 0
KRRS 131304Z 22009KT 02/M06 A3006 RMK A01 T00211059  RH  056%=      5-min Rain = 0
KRRS 131305Z 22010KT 02/M06 A3006 RMK A01 T00211058  RH  056%=      5-min Rain = 0
KRRS 131306Z 22011KT 02/M06 A3006 RMK A01 T00191058  RH  057%=      5-min Rain = 0
KRRS 131307Z 22011KT 02/M06 A3006 RMK A01 T00181057  RH  057%=      5-min Rain = 0
KRRS 131308Z 22011KT 02/M06 A3006 RMK A01 T00181057  RH  057%=      5-min Rain = 0
KRRS 131309Z 22011G16KT 02/M06 A3006 RMK A01 T00191058  RH  057%=      5-min Rain = 0
KRRS 131310Z 22011KT 02/M06 A3006 RMK A01 T00191058  RH  057%=      5-min Rain = 0
KRRS 131311Z 23010KT 02/M06 A3006 RMK A01 T00201058  RH  056%=      5-min Rain = 0
KRRS 131312Z 22011KT 02/M06 A3006 RMK A01 T00201058  RH  056%=      5-min Rain = 0
KRRS 131313Z 23011KT 02/M06 A3006 RMK A01 T00201058  RH  056%=      5-min Rain = 0
KRRS 131314Z 23012KT 02/M06 A3005 RMK A01 T00201057  RH  057%=      5-min Rain = 0
KRRS 131315Z 23010KT 02/M06 A3005 RMK A01 T00201057  RH  057%=      5-min Rain = 0
KRRS 131316Z 23012KT 02/M06 A3005 RMK A01 T00201056  RH  057%=      5-min Rain = 0
KRRS 131317Z 23013KT 02/M06 A3005 RMK A01 T00211057  RH  056%=      5-min Rain = 0
KRRS 131318Z 23013G19KT 02/M06 A3005 RMK A01 T00231057  RH  056%=      5-min Rain = 0
KRRS 131319Z 22013G18KT 02/M06 A3005 RMK A01 T00231057  RH  055%=      5-min Rain = 0
KRRS 131320Z 22012KT 02/M06 A3005 RMK A01 T00241058  RH  055%=      5-min Rain = 0
KRRS 131321Z 22011KT 02/M06 A3005 RMK A01 T00231058  RH  055%=      5-min Rain = 0
KRRS 131322Z 22012KT 02/M06 A3004 RMK A01 T00201058  RH  056%=      5-min Rain = 0
KRRS 131323Z 22012KT 02/M06 A3004 RMK A01 T00191058  RH  056%=      5-min Rain = 0
KRRS 131324Z 22013KT 02/M06 A3004 RMK A01 T00201058  RH  056%=      5-min Rain = 0
KRRS 131325Z 22013KT 02/M06 A3004 RMK A01 T00201057  RH  057%=      5-min Rain = 0
KRRS 131326Z 23013KT 02/M06 A3004 RMK A01 T00191057  RH  057%=      5-min Rain = 0
KRRS 131327Z 23013KT 02/M06 A3004 RMK A01 T00181056  RH  058%=      5-min Rain = 0
KRRS 131328Z 22013KT 02/M06 A3004 RMK A01 T00171056  RH  058%=      5-min Rain = 0
KRRS 131329Z 22014KT 02/M06 A3004 RMK A01 T00171056  RH  058%=      5-min Rain = 0
KRRS 131330Z 22014KT 02/M06 A3004 RMK A01 T00171056  RH  058%=      5-min Rain = 0
KRRS 131331Z 22013KT 02/M06 A3004 RMK A01 T00171056  RH  058%=      5-min Rain = 0
KRRS 131332Z 23014KT 02/M06 A3004 RMK A01 T00171056  RH  059%=      5-min Rain = 0
KRRS 131333Z 23013KT 02/M06 A3004 RMK A01 T00161056  RH  059%=      5-min Rain = 0
KRRS 131334Z 23013KT 02/M06 A3004 RMK A01 T00161057  RH  058%=      5-min Rain = 0
KRRS 131335Z 23013KT 02/M06 A3004 RMK A01 T00171057  RH  058%=      5-min Rain = 0
KRRS 131336Z 23014G20KT 02/M06 A3004 RMK A01 T00161057  RH  058%=      5-min Rain = 0
KRRS 131337Z 23014KT 02/M06 A3004 RMK A01 T00161057  RH  058%=      5-min Rain = 0
KRRS 131338Z 23014G19KT 02/M06 A3004 RMK A01 T00161057  RH  058%=      5-min Rain = 0
KRRS 131339Z 23014G19KT 02/M06 A3004 RMK A01 T00171057  RH  058%=      5-min Rain = 0
KRRS 131340Z 23014G19KT 02/M06 A3004 RMK A01 T00171057  RH  058%=      5-min Rain = 0
KRRS 131341Z 23014KT 02/M06 A3004 RMK A01 T00171058  RH  058%=      5-min Rain = 0
KRRS 131342Z 23013KT 02/M06 A3004 RMK A01 T00171057  RH  058%=      5-min Rain = 0
KRRS 131343Z 23013KT 02/M06 A3004 RMK A01 T00161057  RH  058%=      5-min Rain = 0
KRRS 131344Z 23016KT 02/M06 A3004 RMK A01 T00151057  RH  059%=      5-min Rain = 0
KRRS 131345Z 23014KT 02/M06 A3004 RMK A01 T00151058  RH  058%=      5-min Rain = 0
KRRS 131346Z 22013KT 02/M06 A3004 RMK A01 T00151057  RH  059%=      5-min Rain = 0
KRRS 131347Z 23014KT 01/M06 A3004 RMK A01 T00141057  RH  059%=      5-min Rain = 0
KRRS 131348Z 22015KT 01/M06 A3003 RMK A01 T00141057  RH  059%=      5-min Rain = 0
KRRS 131349Z 22012KT 01/M06 A3003 RMK A01 T00131057  RH  060%=      5-min Rain = 0
KRRS 131350Z 22015KT 01/M06 A3003 RMK A01 T00121057  RH  060%=      5-min Rain = 0
KRRS 131351Z 23015KT 01/M06 A3004 RMK A01 T00121057  RH  060%=      5-min Rain = 0
KRRS 131352Z 23015KT 01/M06 A3004 RMK A01 T00131057  RH  060%=      5-min Rain = 0
KRRS 131353Z 23015KT 01/M06 A3004 RMK A01 T00131057  RH  060%=      5-min Rain = 0
KRRS 131354Z 23013KT 01/M06 A3004 RMK A01 T00131057  RH  060%=      5-min Rain = 0
KRRS 131355Z 23012KT 01/M06 A3004 RMK A01 T00121057  RH  060%=      5-min Rain = 0
KRRS 131356Z 23012KT 01/M06 A3004 RMK A01 T00121057  RH  060%=      5-min Rain = 0
KRRS 131357Z 23012KT 01/M06 A3004 RMK A01 T00111057  RH  060%=      5-min Rain = 0
KRRS 131358Z 23010KT 01/M06 A3005 RMK A01 T00111057  RH  060%=      5-min Rain = 0
KRRS 131359Z 23010G16KT 01/M06 A3005 RMK A01 T00111057  RH  061%=      5-min Rain = 0
KRRS 131400Z 23011G16KT 01/M06 A3005 RMK A01 T00101057  RH  061%=      5-min Rain = 0
KRRS 131401Z 23011KT 01/M06 A3005 RMK A01 T00101057  RH  061%=      5-min Rain = 0
KRRS 131402Z 23010KT 01/M06 A3005 RMK A01 T00111057  RH  061%=      5-min Rain = 0
KRRS 131403Z 23009KT 01/M06 A3005 RMK A01 T00111057  RH  061%=      5-min Rain = 0
KRRS 131404Z 23009KT 01/M06 A3005 RMK A01 T00101056  RH  061%=      5-min Rain = 0
KRRS 131405Z 23009KT 01/M06 A3005 RMK A01 T00091056  RH  062%=      5-min Rain = 0
KRRS 131406Z 23008KT 01/M06 A3005 RMK A01 T00091057  RH  061%=      5-min Rain = 0
KRRS 131407Z 23010KT 01/M06 A3005 RMK A01 T00101057  RH  061%=      5-min Rain = 0
KRRS 131408Z 23009KT 01/M06 A3005 RMK A01 T00111057  RH  061%=      5-min Rain = 0
KRRS 131409Z 23008KT 01/M06 A3005 RMK A01 T00111056  RH  061%=      5-min Rain = 0
KRRS 131410Z 23008KT 01/M06 A3005 RMK A01 T00111057  RH  060%=      5-min Rain = 0
KRRS 131411Z 23010KT 01/M06 A3005 RMK A01 T00111057  RH  061%=      5-min Rain = 0
KRRS 131412Z 23010KT 01/M06 A3005 RMK A01 T00121058  RH  060%=      5-min Rain = 0
KRRS 131413Z 22010KT 01/M06 A3005 RMK A01 T00121058  RH  060%=      5-min Rain = 0
KRRS 131414Z 23011KT 01/M06 A3005 RMK A01 T00131059  RH  059%=      5-min Rain = 0
KRRS 131415Z 23011KT 01/M06 A3005 RMK A01 T00131058  RH  059%=      5-min Rain = 0
KRRS 131416Z 22010KT 01/M06 A3005 RMK A01 T00141058  RH  059%=      5-min Rain = 0
KRRS 131417Z 23009G14KT 01/M06 A3005 RMK A01 T00141058  RH  059%=      5-min Rain = 0
KRRS 131418Z 23010KT 01/M06 A3005 RMK A01 T00141058  RH  059%=      5-min Rain = 0
KRRS 131419Z 23010KT 01/M06 A3005 RMK A01 T00141058  RH  059%=      5-min Rain = 0
KRRS 131420Z 22011KT 01/M06 A3005 RMK A01 T00141058  RH  059%=      5-min Rain = 0
KRRS 131421Z 23009KT 01/M06 A3005 RMK A01 T00141058  RH  058%=      5-min Rain = 0
KRRS 131422Z 23010KT 02/M06 A3005 RMK A01 T00151058  RH  059%=      5-min Rain = 0
KRRS 131423Z 23009KT 02/M06 A3005 RMK A01 T00151058  RH  059%=      5-min Rain = 0
KRRS 131424Z 23009KT 02/M06 A3005 RMK A01 T00151058  RH  059%=      5-min Rain = 0
KRRS 131425Z 23009KT 02/M06 A3005 RMK A01 T00151058  RH  058%=      5-min Rain = 0
KRRS 131426Z 24007KT 02/M06 A3005 RMK A01 T00151057  RH  059%=      5-min Rain = 0
KRRS 131427Z 23008KT 02/M06 A3006 RMK A01 T00151058  RH  058%=      5-min Rain = 0
KRRS 131428Z 24007KT 02/M06 A3006 RMK A01 T00161058  RH  058%=      5-min Rain = 0
KRRS 131429Z 26006KT 02/M06 A3006 RMK A01 T00161058  RH  058%=      5-min Rain = 0
KRRS 131430Z 26006KT 02/M06 A3006 RMK A01 T00171058  RH  057%=      5-min Rain = 0
KRRS 131431Z 27006KT 02/M06 A3006 RMK A01 T00171058  RH  057%=      5-min Rain = 0
KRRS 131432Z 27009KT 02/M06 A3006 RMK A01 T00181059  RH  057%=      5-min Rain = 0
KRRS 131433Z 27011KT 02/M06 A3006 RMK A01 T00181059  RH  056%=      5-min Rain = 0
KRRS 131434Z 28008KT 02/M06 A3006 RMK A01 T00201059  RH  056%=      5-min Rain = 0
KRRS 131435Z 28007KT 02/M06 A3006 RMK A01 T00201058  RH  056%=      5-min Rain = 0
KRRS 131436Z 27007KT 02/M06 A3006 RMK A01 T00201058  RH  056%=      5-min Rain = 0
KRRS 131437Z 27006KT 02/M06 A3006 RMK A01 T00201059  RH  056%=      5-min Rain = 0
KRRS 131438Z 26006KT 02/M06 A3006 RMK A01 T00201058  RH  056%=      5-min Rain = 0
KRRS 131439Z 26006KT 02/M06 A3006 RMK A01 T00201057  RH  057%=      5-min Rain = 0
KRRS 131440Z 27007G13KT 02/M06 A3006 RMK A01 T00201059  RH  056%=      5-min Rain = 0
KRRS 131441Z 26008KT 02/M06 A3005 RMK A01 T00221061  RH  054%=      5-min Rain = 0
KRRS 131442Z 25008KT 02/M06 A3005 RMK A01 T00241061  RH  053%=      5-min Rain = 0
KRRS 131443Z 26009KT 03/M06 A3005 RMK A01 T00261060  RH  053%=      5-min Rain = 0
KRRS 131444Z 24010KT 03/M06 A3005 RMK A01 T00261060  RH  053%=      5-min Rain = 0
KRRS 131445Z 25010G16KT 03/M06 A3004 RMK A01 T00271060  RH  053%=      5-min Rain = 0
KRRS 131446Z 25012G20KT 03/M06 A3004 RMK A01 T00281061  RH  052%=      5-min Rain = 0
KRRS 131447Z 25013G18KT 03/M06 A3004 RMK A01 T00301063  RH  050%=      5-min Rain = 0
KRRS 131448Z 24012KT 03/M06 A3004 RMK A01 T00321061  RH  051%=      5-min Rain = 0
KRRS 131449Z 24013KT 03/M06 A3004 RMK A01 T00321061  RH  050%=      5-min Rain = 0
KRRS 131450Z 24013G19KT 03/M06 A3004 RMK A01 T00331062  RH  050%=      5-min Rain = 0
KRRS 131451Z 24013G18KT 03/M06 A3004 RMK A01 T00331061  RH  050%=      5-min Rain = 0
KRRS 131452Z 23012KT 03/M06 A3004 RMK A01 T00331061  RH  050%=      5-min Rain = 0
KRRS 131453Z 24011KT 03/M06 A3004 RMK A01 T00331056  RH  052%=      5-min Rain = 0
KRRS 131454Z 24011KT 03/M06 A3004 RMK A01 T00331057  RH  052%=      5-min Rain = 0
KRRS 131455Z 24015G21KT 03/M06 A3004 RMK A01 T00331058  RH  051%=      5-min Rain = 0
KRRS 131456Z 23014KT 04/M06 A3003 RMK A01 T00351063  RH  049%=      5-min Rain = 0
KRRS 131457Z 23014KT 04/M06 A3003 RMK A01 T00361062  RH  049%=      5-min Rain = 0
KRRS 131458Z 23014G19KT 04/M06 A3003 RMK A01 T00371061  RH  049%=      5-min Rain = 0
KRRS 131459Z 23014KT 04/M06 A3003 RMK A01 T00371062  RH  048%=      5-min Rain = 0
KRRS 131500Z 23014G19KT 04/M06 A3003 RMK A01 T00371064  RH  048%=      5-min Rain = 0
KRRS 131501Z 23016KT 04/M06 A3003 RMK A01 T00371063  RH  048%=      5-min Rain = 0
KRRS 131502Z 23017KT 04/M07 A3003 RMK A01 T00371065  RH  047%=      5-min Rain = 0
KRRS 131503Z 23013KT 04/M06 A3003 RMK A01 T00381064  RH  047%=      5-min Rain = 0
KRRS 131504Z 23011KT 04/M06 A3003 RMK A01 T00381061  RH  048%=      5-min Rain = 0
KRRS 131505Z 23012KT 04/M06 A3004 RMK A01 T00391060  RH  048%=      5-min Rain = 0
KRRS 131506Z 23015G21KT 04/M06 A3004 RMK A01 T00401062  RH  047%=      5-min Rain = 0
KRRS 131507Z 23015KT 04/M07 A3003 RMK A01 T00411065  RH  046%=      5-min Rain = 0
KRRS 131508Z 23015KT 04/M06 A3003 RMK A01 T00421063  RH  046%=      5-min Rain = 0
KRRS 131509Z 23012KT 04/M06 A3003 RMK A01 T00431064  RH  045%=      5-min Rain = 0
KRRS 131510Z 23013KT 04/M06 A3003 RMK A01 T00441063  RH  046%=      5-min Rain = 0
KRRS 131511Z 23014KT 04/M07 A3004 RMK A01 T00441065  RH  045%=      5-min Rain = 0
KRRS 131512Z 23013KT 05/M06 A3004 RMK A01 T00451064  RH  045%=      5-min Rain = 0
KRRS 131513Z 23013G18KT 05/M07 A3004 RMK A01 T00461065  RH  044%=      5-min Rain = 0
KRRS 131514Z 23014KT 05/M07 A3004 RMK A01 T00471065  RH  044%=      5-min Rain = 0
KRRS 131515Z 23014KT 05/M07 A3004 RMK A01 T00481065  RH  044%=      5-min Rain = 0
KRRS 131516Z 23013G18KT 05/M07 A3004 RMK A01 T00491065  RH  044%=      5-min Rain = 0
KRRS 131517Z 23010KT 05/M07 A3004 RMK A01 T00501065  RH  043%=      5-min Rain = 0
KRRS 131518Z 23014KT 05/M06 A3003 RMK A01 T00511064  RH  043%=      5-min Rain = 0
KRRS 131519Z 23011KT 05/M07 A3003 RMK A01 T00511065  RH  043%=      5-min Rain = 0
KRRS 131520Z 23012KT 05/M06 A3003 RMK A01 T00531064  RH  043%=      5-min Rain = 0
KRRS 131521Z 23015G21KT 05/M07 A3003 RMK A01 T00531065  RH  042%=      5-min Rain = 0
KRRS 131522Z 23016G21KT 05/M07 A3003 RMK A01 T00541068  RH  041%=      5-min Rain = 0
KRRS 131523Z 23016G21KT 05/M07 A3003 RMK A01 T00541068  RH  041%=      5-min Rain = 0
KRRS 131524Z 23015G20KT 05/M07 A3003 RMK A01 T00541068  RH  041%=      5-min Rain = 0
KRRS 131525Z 23012G17KT 05/M07 A3003 RMK A01 T00541067  RH  041%=      5-min Rain = 0
KRRS 131526Z 24012G17KT 05/M07 A3003 RMK A01 T00541065  RH  042%=      5-min Rain = 0
KRRS 131527Z 23014G21KT 05/M07 A3003 RMK A01 T00531065  RH  042%=      5-min Rain = 0
KRRS 131528Z 24016G23KT 05/M07 A3003 RMK A01 T00531070  RH  041%=      5-min Rain = 0
KRRS 131529Z 23017G22KT 05/M07 A3003 RMK A01 T00531070  RH  041%=      5-min Rain = 0
KRRS 131530Z 23015KT 05/M07 A3003 RMK A01 T00531068  RH  041%=      5-min Rain = 0
KRRS 131531Z 24013G20KT 05/M07 A3003 RMK A01 T00531069  RH  041%=      5-min Rain = 0
KRRS 131532Z 24016G21KT 06/M07 A3003 RMK A01 T00551066  RH  041%=      5-min Rain = 0
KRRS 131533Z 24015KT 06/M07 A3003 RMK A01 T00561067  RH  041%=      5-min Rain = 0
KRRS 131534Z 23015G20KT 06/M06 A3003 RMK A01 T00581064  RH  041%=      5-min Rain = 0
KRRS 131535Z 23014G19KT 06/M06 A3003 RMK A01 T00601063  RH  041%=      5-min Rain = 0
KRRS 131536Z 23015KT 06/M07 A3003 RMK A01 T00611066  RH  040%=      5-min Rain = 0
KRRS 131537Z 23013KT 06/M07 A3003 RMK A01 T00621065  RH  040%=      5-min Rain = 0
KRRS 131538Z 23016G26KT 06/M07 A3003 RMK A01 T00631066  RH  039%=      5-min Rain = 0
KRRS 131539Z 23018G24KT 06/M07 A3003 RMK A01 T00631067  RH  039%=      5-min Rain = 0
KRRS 131540Z 23014G21KT 06/M07 A3003 RMK A01 T00631068  RH  039%=      5-min Rain = 0
KRRS 131541Z 23014G21KT 06/M06 A3003 RMK A01 T00631063  RH  040%=      5-min Rain = 0
KRRS 131542Z 23016G21KT 06/M07 A3003 RMK A01 T00631065  RH  040%=      5-min Rain = 0
KRRS 131543Z 23015G23KT 06/M07 A3003 RMK A01 T00631065  RH  040%=      5-min Rain = 0
KRRS 131544Z 23016KT 06/M06 A3003 RMK A01 T00631064  RH  040%=      5-min Rain = 0
KRRS 131545Z 23017G25KT 06/M07 A3003 RMK A01 T00631065  RH  039%=      5-min Rain = 0
KRRS 131546Z 23018G25KT 06/M07 A3003 RMK A01 T00631066  RH  039%=      5-min Rain = 0
KRRS 131547Z 23014G22KT 06/M06 A3003 RMK A01 T00621063  RH  040%=      5-min Rain = 0
KRRS 131548Z 23015G21KT 06/M06 A3003 RMK A01 T00611063  RH  041%=      5-min Rain = 0
KRRS 131549Z 23018G25KT 06/M07 A3003 RMK A01 T00611065  RH  040%=      5-min Rain = 0
KRRS 131550Z 23015KT 06/M07 A3003 RMK A01 T00611065  RH  040%=      5-min Rain = 0
KRRS 131551Z 23013G19KT 06/M06 A3004 RMK A01 T00601064  RH  041%=      5-min Rain = 0
KRRS 131552Z 23014G19KT 06/M06 A3004 RMK A01 T00601063  RH  041%=      5-min Rain = 0
KRRS 131553Z 23015G20KT 06/M06 A3004 RMK A01 T00591062  RH  041%=      5-min Rain = 0
KRRS 131554Z 24014G19KT 06/M06 A3004 RMK A01 T00591064  RH  041%=      5-min Rain = 0
KRRS 131555Z 24017G23KT 06/M07 A3004 RMK A01 T00591066  RH  040%=      5-min Rain = 0
KRRS 131556Z 23017G24KT 06/M07 A3004 RMK A01 T00601066  RH  040%=      5-min Rain = 0
KRRS 131557Z 24013G18KT 06/M07 A3004 RMK A01 T00611065  RH  040%=      5-min Rain = 0
KRRS 131558Z 24015G20KT 06/M06 A3004 RMK A01 T00621062  RH  041%=      5-min Rain = 0
KRRS 131559Z 23018G25KT 06/M06 A3004 RMK A01 T00621064  RH  040%=      5-min Rain = 0
KRRS 131600Z 24015G20KT 06/M06 A3004 RMK A01 T00631064  RH  040%=      5-min Rain = 0
KRRS 131601Z 24018G24KT 06/M06 A3004 RMK A01 T00631062  RH  040%=      5-min Rain = 0
KRRS 131602Z 23016KT 06/M06 A3004 RMK A01 T00631063  RH  040%=      5-min Rain = 0
KRRS 131603Z 25013KT 06/M06 A3004 RMK A01 T00641061  RH  041%=      5-min Rain = 0
KRRS 131604Z 23015G23KT 06/M06 A3004 RMK A01 T00641062  RH  040%=      5-min Rain = 0
KRRS 131605Z 24014G20KT 06/M06 A3004 RMK A01 T00641060  RH  041%=      5-min Rain = 0
KRRS 131606Z 23016G24KT 06/M06 A3004 RMK A01 T00641060  RH  041%=      5-min Rain = 0
KRRS 131607Z 23018G24KT 06/M06 A3004 RMK A01 T00631062  RH  040%=      5-min Rain = 0
KRRS 131608Z 24014G19KT 06/M06 A3005 RMK A01 T00631062  RH  040%=      5-min Rain = 0
KRRS 131609Z 25011G19KT 06/M06 A3005 RMK A01 T00631058  RH  042%=      5-min Rain = 0
KRRS 131610Z 25015G24KT 06/M06 A3005 RMK A01 T00631057  RH  042%=      5-min Rain = 0
KRRS 131611Z 25015G20KT 06/M06 A3005 RMK A01 T00631061  RH  041%=      5-min Rain = 0
KRRS 131612Z 25012KT 06/M06 A3005 RMK A01 T00641058  RH  041%=      5-min Rain = 0
KRRS 131613Z 25011G17KT 07/M06 A3005 RMK A01 T00651056  RH  042%=      5-min Rain = 0
KRRS 131614Z 25015KT 07/M06 A3005 RMK A01 T00661059  RH  041%=      5-min Rain = 0
KRRS 131615Z 25017KT 07/M06 A3005 RMK A01 T00661060  RH  040%=      5-min Rain = 0
KRRS 131616Z 24014KT 07/M06 A3005 RMK A01 T00661059  RH  040%=      5-min Rain = 0
KRRS 131617Z 24014G20KT 07/M06 A3004 RMK A01 T00671057  RH  041%=      5-min Rain = 0
KRRS 131618Z 24017G22KT 07/M06 A3004 RMK A01 T00671059  RH  040%=      5-min Rain = 0
KRRS 131619Z 25013KT 07/M06 A3004 RMK A01 T00671058  RH  040%=      5-min Rain = 0
KRRS 131620Z 25012G18KT 07/M06 A3004 RMK A01 T00671057  RH  041%=      5-min Rain = 0
KRRS 131621Z 24011KT 07/M06 A3004 RMK A01 T00671057  RH  041%=      5-min Rain = 0
KRRS 131622Z 24011KT 07/M05 A3004 RMK A01 T00671053  RH  042%=      5-min Rain = 0
KRRS 131623Z 24012G21KT 07/M06 A3004 RMK A01 T00671057  RH  041%=      5-min Rain = 0
KRRS 131624Z 24016G21KT 07/M06 A3004 RMK A01 T00671057  RH  041%=      5-min Rain = 0
KRRS 131625Z 24015G20KT 07/M06 A3004 RMK A01 T00671058  RH  040%=      5-min Rain = 0
KRRS 131626Z 25015G20KT 07/M06 A3004 RMK A01 T00671058  RH  040%=      5-min Rain = 0
KRRS 131627Z 24012G19KT 07/M05 A3004 RMK A01 T00661053  RH  042%=      5-min Rain = 0
KRRS 131628Z 24012G19KT 07/M06 A3003 RMK A01 T00671055  RH  041%=      5-min Rain = 0
KRRS 131629Z 23015G20KT 07/M05 A3003 RMK A01 T00681053  RH  042%=      5-min Rain = 0
KRRS 131630Z 24017G22KT 07/M06 A3003 RMK A01 T00681056  RH  041%=      5-min Rain = 0
KRRS 131631Z 24014G19KT 07/M06 A3003 RMK A01 T00681055  RH  041%=      5-min Rain = 0
KRRS 131632Z 23012KT 07/M06 A3003 RMK A01 T00681055  RH  041%=      5-min Rain = 0
KRRS 131633Z 24014KT 07/M06 A3003 RMK A01 T00681055  RH  041%=      5-min Rain = 0
KRRS 131634Z 23013G20KT 07/M05 A3003 RMK A01 T00681053  RH  042%=      5-min Rain = 0
KRRS 131635Z 23014G22KT 07/M06 A3003 RMK A01 T00691055  RH  041%=      5-min Rain = 0
KRRS 131636Z 23018G24KT 07/M05 A3003 RMK A01 T00701054  RH  041%=      5-min Rain = 0
KRRS 131637Z 24017G23KT 07/M06 A3003 RMK A01 T00701056  RH  040%=      5-min Rain = 0
KRRS 131638Z 24014G19KT 07/M05 A3003 RMK A01 T00711051  RH  042%=      5-min Rain = 0
KRRS 131639Z 23016G24KT 07/M05 A3003 RMK A01 T00721051  RH  041%=      5-min Rain = 0
KRRS 131640Z 23017KT 07/M05 A3003 RMK A01 T00711053  RH  041%=      5-min Rain = 0
KRRS 131641Z 23014G19KT 07/M05 A3003 RMK A01 T00701051  RH  042%=      5-min Rain = 0
KRRS 131642Z 23017G25KT 07/M05 A3003 RMK A01 T00701049  RH  043%=      5-min Rain = 0
KRRS 131643Z 23016G25KT 07/M05 A3003 RMK A01 T00701050  RH  042%=      5-min Rain = 0
KRRS 131644Z 24016G23KT 07/M05 A3003 RMK A01 T00691048  RH  043%=      5-min Rain = 0
KRRS 131645Z 23014G20KT 07/M05 A3003 RMK A01 T00691048  RH  043%=      5-min Rain = 0
KRRS 131646Z 23018G23KT 07/M05 A3003 RMK A01 T00691046  RH  044%=      5-min Rain = 0
KRRS 131647Z 23015G21KT 07/M05 A3003 RMK A01 T00701047  RH  043%=      5-min Rain = 0
KRRS 131648Z 23014G22KT 07/M04 A3003 RMK A01 T00711043  RH  044%=      5-min Rain = 0
KRRS 131649Z 23018KT 07/M04 A3003 RMK A01 T00731043  RH  044%=      5-min Rain = 0
KRRS 131650Z 23016G22KT 07/M04 A3003 RMK A01 T00731042  RH  044%=      5-min Rain = 0
KRRS 131651Z 23020G26KT 07/M05 A3003 RMK A01 T00741045  RH  042%=      5-min Rain = 0
KRRS 131652Z 23017G22KT 08/M05 A3003 RMK A01 T00751045  RH  043%=      5-min Rain = 0
KRRS 131653Z 23017G22KT 08/M04 A3003 RMK A01 T00751042  RH  043%=      5-min Rain = 0
KRRS 131654Z 23020G26KT 08/M04 A3003 RMK A01 T00751043  RH  043%=      5-min Rain = 0
KRRS 131655Z 23017G23KT 08/M04 A3003 RMK A01 T00751042  RH  043%=      5-min Rain = 0
KRRS 131656Z 23018G24KT 07/M04 A3002 RMK A01 T00741041  RH  044%=      5-min Rain = 0
KRRS 131657Z 23018KT 07/M04 A3003 RMK A01 T00721043  RH  044%=      5-min Rain = 0
KRRS 131658Z 23021G27KT 07/M04 A3003 RMK A01 T00691044  RH  044%=      5-min Rain = 0
KRRS 131659Z 23021G27KT 07/M05 A3003 RMK A01 T00661049  RH  044%=      5-min Rain = 0
KRRS 131700Z 23016G21KT 06/M05 A3003 RMK A01 T00631047  RH  045%=      5-min Rain = 0
KRRS 131701Z 23019G26KT 06/M05 A3002 RMK A01 T00621046  RH  046%=      5-min Rain = 0
KRRS 131702Z 23017KT 06/M05 A3002 RMK A01 T00601046  RH  046%=      5-min Rain = 0
KRRS 131703Z 23017KT 06/M05 A3002 RMK A01 T00591045  RH  047%=      5-min Rain = 0
KRRS 131704Z 23015G21KT 06/M05 A3002 RMK A01 T00581045  RH  047%=      5-min Rain = 0
KRRS 131705Z 23018G25KT 06/M05 A3002 RMK A01 T00581046  RH  047%=      5-min Rain = 0
KRRS 131706Z 23016G21KT 06/M04 A3002 RMK A01 T00591044  RH  048%=      5-min Rain = 0
KRRS 131707Z 23018G24KT 06/M04 A3002 RMK A01 T00611044  RH  047%=      5-min Rain = 0
KRRS 131708Z 23019G25KT 06/M04 A3002 RMK A01 T00631043  RH  047%=      5-min Rain = 0
KRRS 131709Z 23016G22KT 07/M04 A3002 RMK A01 T00651042  RH  046%=      5-min Rain = 0
KRRS 131710Z 23015G22KT 07/M04 A3002 RMK A01 T00671039  RH  047%=      5-min Rain = 0
KRRS 131711Z 23015G20KT 07/M04 A3002 RMK A01 T00701037  RH  046%=      5-min Rain = 0
KRRS 131712Z 23018G24KT 07/M04 A3002 RMK A01 T00721039  RH  045%=      5-min Rain = 0
KRRS 131713Z 23017G26KT 07/M04 A3002 RMK A01 T00731040  RH  044%=      5-min Rain = 0
KRRS 131714Z 23020G26KT 07/M04 A3002 RMK A01 T00741040  RH  044%=      5-min Rain = 0
KRRS 131715Z 23021G29KT 07/M04 A3001 RMK A01 T00741042  RH  044%=      5-min Rain = 0
KRRS 131716Z 23016G23KT 07/M04 A3001 RMK A01 T00721039  RH  045%=      5-min Rain = 0
KRRS 131717Z 23023G30KT 07/M04 A3001 RMK A01 T00711042  RH  044%=      5-min Rain = 0
KRRS 131718Z 23017G24KT 07/M04 A3001 RMK A01 T00681042  RH  045%=      5-min Rain = 0
KRRS 131719Z 23020G27KT 07/M04 A3001 RMK A01 T00681038  RH  047%=      5-min Rain = 0
KRRS 131720Z 23021G27KT 07/M04 A3001 RMK A01 T00701040  RH  045%=      5-min Rain = 0
KRRS 131721Z 23022G28KT 07/M04 A3001 RMK A01 T00711042  RH  044%=      5-min Rain = 0
KRRS 131722Z 23020G26KT 07/M04 A3001 RMK A01 T00731041  RH  044%=      5-min Rain = 0
KRRS 131723Z 23019G25KT 08/M04 A3001 RMK A01 T00751038  RH  045%=      5-min Rain = 0
KRRS 131724Z 23021G28KT 08/M04 A3001 RMK A01 T00771038  RH  044%=      5-min Rain = 0
KRRS 131725Z 23020G30KT 08/M04 A3001 RMK A01 T00781039  RH  043%=      5-min Rain = 0
KRRS 131726Z 23017G24KT 08/M04 A3001 RMK A01 T00791035  RH  044%=      5-min Rain = 0
KRRS 131727Z 24020G28KT 08/M03 A3001 RMK A01 T00811034  RH  044%=      5-min Rain = 0
KRRS 131728Z 23018G23KT 08/M04 A3001 RMK A01 T00811037  RH  043%=      5-min Rain = 0
KRRS 131729Z 24018G25KT 08/M04 A3001 RMK A01 T00811036  RH  043%=      5-min Rain = 0
KRRS 131730Z 24021G29KT 08/M04 A3001 RMK A01 T00811039  RH  043%=      5-min Rain = 0
KRRS 131731Z 24022G29KT 08/M04 A30 RMK A01 T00821039  RH  042%=      5-min Rain = 0
KRRS 131732Z 24018G24KT 08/M04 A30 RMK A01 T00821040  RH  042%=      5-min Rain = 0
KRRS 131733Z 24016G21KT 08/M04 A30 RMK A01 T00841037  RH  042%=      5-min Rain = 0
KRRS 131734Z 23016G21KT 09/M03 A30 RMK A01 T00861034  RH  043%=      5-min Rain = 0
KRRS 131735Z 24018G26KT 09/M03 A30 RMK A01 T00881034  RH  042%=      5-min Rain = 0
KRRS 131736Z 23022G32KT 09/M04 A30 RMK A01 T00891038  RH  041%=      5-min Rain = 0
KRRS 131737Z 23021G27KT 09/M04 A30 RMK A01 T00891040  RH  040%=      5-min Rain = 0
KRRS 131738Z 24020G30KT 09/M04 A30 RMK A01 T00891041  RH  040%=      5-min Rain = 0
KRRS 131739Z 24023G30KT 09/M05 A30 RMK A01 T00891046  RH  038%=      5-min Rain = 0
KRRS 131740Z 24022G27KT 09/M05 A30 RMK A01 T00881045  RH  039%=      5-min Rain = 0
KRRS 131741Z 24019G26KT 09/M04 A30 RMK A01 T00881042  RH  040%=      5-min Rain = 0
KRRS 131742Z 24021KT 09/M04 A30 RMK A01 T00901043  RH  039%=      5-min Rain = 0
KRRS 131743Z 24020G25KT 09/M04 A30 RMK A01 T00911042  RH  039%=      5-min Rain = 0
KRRS 131744Z 24019G26KT 09/M04 A30 RMK A01 T00931042  RH  038%=      5-min Rain = 0
KRRS 131745Z 24017KT 10/M04 A30 RMK A01 T00951041  RH  038%=      5-min Rain = 0
KRRS 131746Z 24016G22KT 10/M04 A30 RMK A01 T00971037  RH  039%=      5-min Rain = 0
KRRS 131747Z 24018G24KT 10/M04 A30 RMK A01 T00991037  RH  038%=      5-min Rain = 0
KRRS 131748Z 24019G26KT 10/M04 A30 RMK A01 T00991040  RH  037%=      5-min Rain = 0
KRRS 131749Z 24018G25KT 10/M04 A30 RMK A01 T01001040  RH  037%=      5-min Rain = 0
KRRS 131750Z 24020G25KT 10/M04 A30 RMK A01 T01011041  RH  037%=      5-min Rain = 0
KRRS 131751Z 23019G24KT 10/M04 A30 RMK A01 T01011040  RH  037%=      5-min Rain = 0
KRRS 131752Z 24019KT 10/M04 A2999 RMK A01 T01021041  RH  036%=      5-min Rain = 0
KRRS 131753Z 24015G21KT 10/M04 A2999 RMK A01 T01021036  RH  038%=      5-min Rain = 0
KRRS 131754Z 24014KT 10/M03 A2999 RMK A01 T01041033  RH  038%=      5-min Rain = 0
KRRS 131755Z 25013KT 11/M03 A2999 RMK A01 T01051029  RH  039%=      5-min Rain = 0
KRRS 131756Z 25014KT 11/M03 A2999 RMK A01 T01071027  RH  039%=      5-min Rain = 0
KRRS 131757Z 25015KT 11/M03 A2999 RMK A01 T01081028  RH  038%=      5-min Rain = 0
KRRS 131758Z 24013KT 11/M03 A2999 RMK A01 T01071029  RH  038%=      5-min Rain = 0
KRRS 131759Z 25015G20KT 11/M03 A2999 RMK A01 T01081027  RH  039%=      5-min Rain = 0
KRRS 131800Z 25013KT 11/M03 A2999 RMK A01 T01081027  RH  039%=      5-min Rain = 0
KRRS 131801Z 24014KT 11/M03 A2999 RMK A01 T01081026  RH  039%=      5-min Rain = 0
KRRS 131802Z 24012KT 11/M02 A2999 RMK A01 T01111024  RH  039%=      5-min Rain = 0
KRRS 131803Z 23014KT 11/M03 A2999 RMK A01 T01131025  RH  038%=      5-min Rain = 0
KRRS 131804Z 24014KT 11/M03 A2999 RMK A01 T01141027  RH  037%=      5-min Rain = 0
KRRS 131805Z 24014KT 11/M03 A2999 RMK A01 T01141026  RH  038%=      5-min Rain = 0
KRRS 131806Z 23014KT 11/M03 A2999 RMK A01 T01131028  RH  037%=      5-min Rain = 0
KRRS 131807Z 23014KT 11/M02 A2999 RMK A01 T01121024  RH  038%=      5-min Rain = 0
KRRS 131808Z 24015G20KT 11/M03 A2999 RMK A01 T01121025  RH  038%=      5-min Rain = 0
KRRS 131809Z 23013KT 11/M02 A2999 RMK A01 T01111022  RH  039%=      5-min Rain = 0
KRRS 131810Z 23018G24KT 11/M03 A2999 RMK A01 T01121026  RH  038%=      5-min Rain = 0
KRRS 131811Z 23018G24KT 11/M03 A2999 RMK A01 T01081033  RH  037%=      5-min Rain = 0
KRRS 131812Z 23020G26KT 11/M03 A2999 RMK A01 T01051033  RH  038%=      5-min Rain = 0
KRRS 131813Z 24016G24KT 10/M04 A2999 RMK A01 T01021036  RH  038%=      5-min Rain = 0
KRRS 131814Z 23016G22KT 10/M03 A2999 RMK A01 T01001031  RH  040%=      5-min Rain = 0
KRRS 131815Z 24014G20KT 10/M03 A2999 RMK A01 T01001027  RH  041%=      5-min Rain = 0
KRRS 131816Z 23020G26KT 10/M03 A2999 RMK A01 T01011028  RH  040%=      5-min Rain = 0
KRRS 131817Z 23019G25KT 10/M03 A2999 RMK A01 T01001034  RH  039%=      5-min Rain = 0
KRRS 131818Z 23017G23KT 10/M03 A2998 RMK A01 T00991033  RH  039%=      5-min Rain = 0
KRRS 131819Z 24017G24KT 10/M03 A2998 RMK A01 T00991030  RH  040%=      5-min Rain = 0
KRRS 131820Z 23019G24KT 10/M03 A2998 RMK A01 T00991032  RH  040%=      5-min Rain = 0
KRRS 131821Z 24018KT 10/M03 A2998 RMK A01 T01001034  RH  039%=      5-min Rain = 0
KRRS 131822Z 24016KT 10/M03 A2998 RMK A01 T01011030  RH  040%=      5-min Rain = 0
KRRS 131823Z 24012G17KT 10/M02 A2998 RMK A01 T01031024  RH  041%=      5-min Rain = 0
KRRS 131824Z 24016KT 11/M03 A2998 RMK A01 T01061025  RH  040%=      5-min Rain = 0
KRRS 131825Z 25015G20KT 11/M02 A2998 RMK A01 T01081024  RH  039%=      5-min Rain = 0
KRRS 131826Z 24017G23KT 11/M03 A2998 RMK A01 T01091025  RH  039%=      5-min Rain = 0
KRRS 131827Z 24018KT 11/M03 A2998 RMK A01 T01091025  RH  039%=      5-min Rain = 0
KRRS 131828Z 24019KT 11/M03 A2998 RMK A01 T01081027  RH  039%=      5-min Rain = 0
KRRS 131829Z 24017G24KT 11/M03 A2998 RMK A01 T01061027  RH  039%=      5-min Rain = 0
KRRS 131830Z 24019G24KT 11/M03 A2998 RMK A01 T01051027  RH  039%=      5-min Rain = 0
KRRS 131831Z 24017G22KT 10/M03 A2998 RMK A01 T01041025  RH  040%=      5-min Rain = 0
KRRS 131832Z 25015KT 11/M02 A2998 RMK A01 T01051024  RH  040%=      5-min Rain = 0
KRRS 131833Z 25013G21KT 11/M02 A2997 RMK A01 T01061020  RH  041%=      5-min Rain = 0
KRRS 131834Z 25017KT 11/M02 A2997 RMK A01 T01081023  RH  040%=      5-min Rain = 0
KRRS 131835Z 24019G26KT 11/M03 A2997 RMK A01 T01081029  RH  038%=      5-min Rain = 0
KRRS 131836Z 24017G23KT 11/M03 A2997 RMK A01 T01081028  RH  038%=      5-min Rain = 0
KRRS 131837Z 24015G20KT 11/M03 A2997 RMK A01 T01091028  RH  038%=      5-min Rain = 0
KRRS 131838Z 24015KT 11/M03 A2997 RMK A01 T01101026  RH  039%=      5-min Rain = 0
KRRS 131839Z 25015G20KT 11/M03 A2997 RMK A01 T01101027  RH  038%=      5-min Rain = 0
KRRS 131840Z 25016KT 11/M03 A2997 RMK A01 T01091026  RH  039%=      5-min Rain = 0
KRRS 131841Z 25014KT 11/M02 A2997 RMK A01 T01101024  RH  039%=      5-min Rain = 0
KRRS 131842Z 24017KT 11/M03 A2997 RMK A01 T01121026  RH  038%=      5-min Rain = 0
KRRS 131843Z 25015G20KT 11/M03 A2997 RMK A01 T01121027  RH  038%=      5-min Rain = 0
KRRS 131844Z 24017G22KT 11/M03 A2996 RMK A01 T01121025  RH  038%=      5-min Rain = 0
KRRS 131845Z 24018KT 11/M03 A2996 RMK A01 T01121029  RH  037%=      5-min Rain = 0
KRRS 131846Z 24018KT 11/M03 A2996 RMK A01 T01111028  RH  038%=      5-min Rain = 0
KRRS 131847Z 24016G22KT 11/M03 A2996 RMK A01 T01121025  RH  038%=      5-min Rain = 0
KRRS 131848Z 24018G23KT 11/M02 A2996 RMK A01 T01131024  RH  038%=      5-min Rain = 0
KRRS 131849Z 24017KT 11/M03 A2996 RMK A01 T01141027  RH  037%=      5-min Rain = 0
KRRS 131850Z 25014KT 11/M03 A2996 RMK A01 T01141026  RH  037%=      5-min Rain = 0
KRRS 131851Z 24015G21KT 12/M02 A2996 RMK A01 T01151023  RH  038%=      5-min Rain = 0
KRRS 131852Z 24015G20KT 12/M03 A2996 RMK A01 T01161027  RH  037%=      5-min Rain = 0
KRRS 131853Z 24015G20KT 12/M03 A2996 RMK A01 T01171025  RH  037%=      5-min Rain = 0
KRRS 131854Z 24014G19KT 12/M03 A2996 RMK A01 T01171026  RH  037%=      5-min Rain = 0
KRRS 131855Z 25015KT 12/M02 A2996 RMK A01 T01181023  RH  037%=      5-min Rain = 0
KRRS 131856Z 25015KT 12/M03 A2996 RMK A01 T01191027  RH  036%=      5-min Rain = 0
KRRS 131857Z 25015KT 12/M03 A2996 RMK A01 T01181027  RH  036%=      5-min Rain = 0
KRRS 131858Z 24014KT 12/M03 A2995 RMK A01 T01191026  RH  036%=      5-min Rain = 0
KRRS 131859Z 24013KT 12/M03 A2995 RMK A01 T01191025  RH  037%=      5-min Rain = 0
KRRS 131900Z 24013G18KT 12/M02 A2995 RMK A01 T01191021  RH  037%=      5-min Rain = 0
KRRS 131901Z 24014KT 12/M02 A2995 RMK A01 T01201024  RH  036%=      5-min Rain = 0
KRRS 131902Z 24016G22KT 12/M02 A2995 RMK A01 T01211024  RH  036%=      5-min Rain = 0
KRRS 131903Z 25014KT 12/M03 A2995 RMK A01 T01211025  RH  036%=      5-min Rain = 0
KRRS 131904Z 25014KT 12/M02 A2995 RMK A01 T01211022  RH  037%=      5-min Rain = 0
KRRS 131905Z 24013G18KT 12/M02 A2995 RMK A01 T01211019  RH  037%=      5-min Rain = 0
KRRS 131906Z 24013KT 12/M02 A2995 RMK A01 T01231020  RH  037%=      5-min Rain = 0
KRRS 131907Z 24013KT 12/M02 A2995 RMK A01 T01241022  RH  036%=      5-min Rain = 0
KRRS 131908Z 24015KT 12/M03 A2995 RMK A01 T01241025  RH  035%=      5-min Rain = 0
KRRS 131909Z 24013KT 12/M02 A2994 RMK A01 T01241022  RH  036%=      5-min Rain = 0
KRRS 131910Z 26013KT 12/M02 A2994 RMK A01 T01241018  RH  037%=      5-min Rain = 0
KRRS 131911Z 25013KT 13/M02 A2994 RMK A01 T01261017  RH  037%=      5-min Rain = 0
KRRS 131912Z 25013KT 13/M02 A2994 RMK A01 T01261016  RH  037%=      5-min Rain = 0
KRRS 131913Z 25012KT 13/M02 A2994 RMK A01 T01271018  RH  036%=      5-min Rain = 0
KRRS 131914Z 25015KT 13/M02 A2994 RMK A01 T01271018  RH  036%=      5-min Rain = 0
KRRS 131915Z 25014KT 13/M02 A2994 RMK A01 T01271018  RH  037%=      5-min Rain = 0
KRRS 131916Z 25014KT 13/M02 A2994 RMK A01 T01261021  RH  036%=      5-min Rain = 0
KRRS 131917Z 25015KT 13/M02 A2994 RMK A01 T01261020  RH  036%=      5-min Rain = 0
KRRS 131918Z 24013KT 13/M02 A2994 RMK A01 T01271020  RH  036%=      5-min Rain = 0
KRRS 131919Z 25013KT 13/M02 A2994 RMK A01 T01271018  RH  036%=      5-min Rain = 0
KRRS 131920Z 25013KT 13/M02 A2994 RMK A01 T01281018  RH  036%=      5-min Rain = 0
KRRS 131921Z 26013KT 13/M02 A2994 RMK A01 T01281018  RH  036%=      5-min Rain = 0
KRRS 131922Z 26014G19KT 13/M01 A2994 RMK A01 T01301011  RH  038%=      5-min Rain = 0
KRRS 131923Z 26015G20KT 13/M02 A2994 RMK A01 T01321018  RH  035%=      5-min Rain = 0
KRRS 131924Z 27015G20KT 13/M02 A2994 RMK A01 T01301016  RH  036%=      5-min Rain = 0
KRRS 131925Z 27014KT 13/M02 A2994 RMK A01 T01301016  RH  036%=      5-min Rain = 0
KRRS 131926Z 25015G22KT 13/M02 A2994 RMK A01 T01301016  RH  037%=      5-min Rain = 0
KRRS 131927Z 25014KT 13/M02 A2993 RMK A01 T01301018  RH  036%=      5-min Rain = 0
KRRS 131928Z 25014G19KT 13/M02 A2993 RMK A01 T01311016  RH  036%=      5-min Rain = 0
KRRS 131929Z 25015KT 13/M02 A2993 RMK A01 T01331019  RH  035%=      5-min Rain = 0
KRRS 131930Z 25014G19KT 13/M02 A2993 RMK A01 T01331015  RH  036%=      5-min Rain = 0
KRRS 131931Z 25016KT 13/M02 A2993 RMK A01 T01331020  RH  035%=      5-min Rain = 0
KRRS 131932Z 26016G21KT 13/M02 A2992 RMK A01 T01311015  RH  036%=      5-min Rain = 0
KRRS 131933Z 27015KT 13/M01 A2992 RMK A01 T01301012  RH  038%=      5-min Rain = 0
KRRS 131934Z 25016KT 13/M02 A2992 RMK A01 T01291016  RH  037%=      5-min Rain = 0
KRRS 131935Z 25016KT 13/M02 A2992 RMK A01 T01291015  RH  037%=      5-min Rain = 0
KRRS 131936Z 25017G22KT 13/M02 A2992 RMK A01 T01291015  RH  037%=      5-min Rain = 0
KRRS 131937Z 25016KT 13/M02 A2992 RMK A01 T01281017  RH  037%=      5-min Rain = 0
KRRS 131938Z 25016KT 13/M02 A2992 RMK A01 T01271018  RH  037%=      5-min Rain = 0
KRRS 131939Z 25015G20KT 13/M02 A2992 RMK A01 T01281022  RH  035%=      5-min Rain = 0
KRRS 131940Z 25016KT 13/M02 A2991 RMK A01 T01281019  RH  036%=      5-min Rain = 0
KRRS 131941Z 24014G19KT 13/M02 A2991 RMK A01 T01281016  RH  037%=      5-min Rain = 0
KRRS 131942Z 25014KT 13/M02 A2991 RMK A01 T01291018  RH  036%=      5-min Rain = 0
KRRS 131943Z 26014KT 13/M02 A2991 RMK A01 T01291015  RH  037%=      5-min Rain = 0
KRRS 131944Z 25011KT 13/M01 A2991 RMK A01 T01291014  RH  037%=      5-min Rain = 0
KRRS 131945Z 24010KT 13/M01 A2991 RMK A01 T01311010  RH  038%=      5-min Rain = 0
KRRS 131946Z 25011KT 13/M01 A2991 RMK A01 T01321013  RH  037%=      5-min Rain = 0
KRRS 131947Z 25012KT 13/M01 A2991 RMK A01 T01321012  RH  037%=      5-min Rain = 0
KRRS 131948Z 25010KT 13/M01 A2991 RMK A01 T01321013  RH  037%=      5-min Rain = 0
KRRS 131949Z 25011KT 13/M01 A2991 RMK A01 T01321010  RH  037%=      5-min Rain = 0
KRRS 131950Z 25012KT 13/M01 A2991 RMK A01 T01341012  RH  036%=      5-min Rain = 0
KRRS 131951Z 24012KT 13/M01 A2991 RMK A01 T01331014  RH  036%=      5-min Rain = 0
KRRS 131952Z 23013KT 13/M02 A299 RMK A01 T01331017  RH  035%=      5-min Rain = 0
KRRS 131953Z 23013KT 13/M02 A299 RMK A01 T01321016  RH  036%=      5-min Rain = 0
KRRS 131954Z 24014KT 13/M01 A299 RMK A01 T01321014  RH  036%=      5-min Rain = 0
KRRS 131955Z 25012KT 13/M02 A299 RMK A01 T01311016  RH  036%=      5-min Rain = 0
KRRS 131956Z 25013KT 13/M01 A299 RMK A01 T01301014  RH  037%=      5-min Rain = 0
KRRS 131957Z 26014KT 13/M02 A299 RMK A01 T01311015  RH  036%=      5-min Rain = 0
KRRS 131958Z 24014KT 13/M01 A299 RMK A01 T01311013  RH  037%=      5-min Rain = 0
KRRS 131959Z 24013KT 13/M01 A299 RMK A01 T01311014  RH  036%=      5-min Rain = 0
KRRS 132000Z 25014KT 13/M01 A299 RMK A01 T01311013  RH  037%=      5-min Rain = 0
KRRS 132001Z 25011KT 13/M01 A299 RMK A01 T01321011  RH  037%=      5-min Rain = 0
KRRS 132002Z 24014KT 14/M01 A299 RMK A01 T01351010  RH  037%=      5-min Rain = 0
KRRS 132003Z 24014KT 14/M01 A299 RMK A01 T01351011  RH  036%=      5-min Rain = 0
KRRS 132004Z 24014KT 13/M01 A299 RMK A01 T01341012  RH  037%=      5-min Rain = 0
KRRS 132005Z 24014KT 13/M01 A2989 RMK A01 T01331010  RH  037%=      5-min Rain = 0
KRRS 132006Z 24011KT 13/M01 A2989 RMK A01 T01321011  RH  037%=      5-min Rain = 0
KRRS 132007Z 25010KT 13/M01 A2989 RMK A01 T01331006  RH  038%=      5-min Rain = 0
KRRS 132008Z 24011KT 14/M00 A2989 RMK A01 T01361004  RH  038%=      5-min Rain = 0
KRRS 132009Z 24011KT 14/M01 A2989 RMK A01 T01381005  RH  037%=      5-min Rain = 0
KRRS 132010Z 23011KT 14/M00 A2989 RMK A01 T01401003  RH  037%=      5-min Rain = 0
KRRS 132011Z 23010KT 14/M00 A2989 RMK A01 T01401003  RH  037%=      5-min Rain = 0
KRRS 132012Z 24011G18KT 14/M00 A2989 RMK A01 T01401004  RH  037%=      5-min Rain = 0
KRRS 132013Z 24012KT 14/M01 A2989 RMK A01 T01391005  RH  037%=      5-min Rain = 0
KRRS 132014Z 24013KT 14/M01 A2989 RMK A01 T01381005  RH  037%=      5-min Rain = 0
KRRS 132015Z 24013KT 14/M01 A2989 RMK A01 T01381006  RH  037%=      5-min Rain = 0
KRRS 132016Z 23011KT 14/M00 A2989 RMK A01 T01381004  RH  038%=      5-min Rain = 0
KRRS 132017Z 24011KT 14/M00 A2989 RMK A01 T01391002  RH  038%=      5-min Rain = 0
KRRS 132018Z 24013KT 14/M00 A2989 RMK A01 T01421004  RH  037%=      5-min Rain = 0
KRRS 132019Z 25013KT 14/M01 A2989 RMK A01 T01421011  RH  035%=      5-min Rain = 0
KRRS 132020Z 25014KT 14/M01 A2989 RMK A01 T01411009  RH  036%=      5-min Rain = 0
KRRS 132021Z 24011KT 14/M01 A2989 RMK A01 T01411009  RH  036%=      5-min Rain = 0
KRRS 132022Z 24011KT 14/M01 A2989 RMK A01 T01421005  RH  037%=      5-min Rain = 0
KRRS 132023Z 24011KT 14/M00 A2989 RMK A01 T01441004  RH  036%=      5-min Rain = 0
KRRS 132024Z 24011KT 15/M01 A2989 RMK A01 T01451005  RH  036%=      5-min Rain = 0
KRRS 132025Z 24011KT 15/M00 A2989 RMK A01 T01451002  RH  036%=      5-min Rain = 0
KRRS 132026Z 24014KT 15/M01 A2989 RMK A01 T01461007  RH  035%=      5-min Rain = 0
KRRS 132027Z 26014KT 14/M01 A2988 RMK A01 T01431007  RH  036%=      5-min Rain = 0
KRRS 132028Z 25012KT 14/M01 A2988 RMK A01 T01411006  RH  037%=      5-min Rain = 0
KRRS 132029Z 25012G17KT 14/M00 A2988 RMK A01 T01411002  RH  037%=      5-min Rain = 0
KRRS 132030Z 24014KT 14/M01 A2988 RMK A01 T01421007  RH  036%=      5-min Rain = 0
KRRS 132031Z 23012KT 14/M00 A2988 RMK A01 T01411004  RH  037%=      5-min Rain = 0
KRRS 132032Z 23013KT 14/M01 A2988 RMK A01 T01431005  RH  036%=      5-min Rain = 0
KRRS 132033Z 23011KT 15/M00 A2988 RMK A01 T01451002  RH  037%=      5-min Rain = 0
KRRS 132034Z 23012KT 15/00 A2988 RMK A01 T014700-0  RH  037%=      5-min Rain = 0
KRRS 132035Z 24013KT 15/M01 A2988 RMK A01 T01471005  RH  035%=      5-min Rain = 0
KRRS 132036Z 23012KT 15/00 A2988 RMK A01 T01460001  RH  037%=      5-min Rain = 0
KRRS 132037Z 23016KT 15/M00 A2988 RMK A01 T01461004  RH  036%=      5-min Rain = 0
KRRS 132038Z 24016KT 14/M01 A2988 RMK A01 T01431011  RH  034%=      5-min Rain = 0
KRRS 132039Z 23016KT 14/M01 A2988 RMK A01 T01411011  RH  035%=      5-min Rain = 0
KRRS 132040Z 24014G19KT 14/M01 A2988 RMK A01 T01411005  RH  037%=      5-min Rain = 0
KRRS 132041Z 24016G21KT 14/M01 A2988 RMK A01 T01421010  RH  035%=      5-min Rain = 0
KRRS 132042Z 24015G21KT 14/M01 A2988 RMK A01 T01411013  RH  034%=      5-min Rain = 0
KRRS 132043Z 24017KT 14/M01 A2988 RMK A01 T01411012  RH  035%=      5-min Rain = 0
KRRS 132044Z 24017KT 14/M01 A2988 RMK A01 T01401012  RH  035%=      5-min Rain = 0
KRRS 132045Z 24015KT 14/M01 A2988 RMK A01 T01401008  RH  036%=      5-min Rain = 0
KRRS 132046Z 24015KT 14/M01 A2987 RMK A01 T01391006  RH  037%=      5-min Rain = 0
KRRS 132047Z 24014KT 14/M00 A2987 RMK A01 T01401003  RH  037%=      5-min Rain = 0
KRRS 132048Z 24016KT 14/M00 A2987 RMK A01 T01401004  RH  037%=      5-min Rain = 0
KRRS 132049Z 24018KT 14/M01 A2987 RMK A01 T01401006  RH  037%=      5-min Rain = 0
KRRS 132050Z 24015KT 14/M01 A2987 RMK A01 T01381009  RH  036%=      5-min Rain = 0
KRRS 132051Z 24016KT 14/M01 A2987 RMK A01 T01381007  RH  037%=      5-min Rain = 0
KRRS 132052Z 24015KT 14/M00 A2987 RMK A01 T01391003  RH  038%=      5-min Rain = 0
KRRS 132053Z 24015KT 14/M00 A2987 RMK A01 T01391003  RH  037%=      5-min Rain = 0
KRRS 132054Z 24015KT 14/M00 A2987 RMK A01 T01401003  RH  037%=      5-min Rain = 0
KRRS 132055Z 24013KT 14/M00 A2987 RMK A01 T01401004  RH  037%=      5-min Rain = 0
KRRS 132056Z 23010KT 14/00 A2987 RMK A01 T01400003  RH  039%=      5-min Rain = 0
KRRS 132057Z 24013KT 14/00 A2987 RMK A01 T01430003  RH  038%=      5-min Rain = 0
KRRS 132058Z 24012KT 14/00 A2987 RMK A01 T01430003  RH  038%=      5-min Rain = 0
KRRS 132059Z 24013KT 14/00 A2987 RMK A01 T01410003  RH  039%=      5-min Rain = 0
KRRS 132100Z 24011KT 14/01 A2987 RMK A01 T01410005  RH  039%=      5-min Rain = 0
KRRS 132101Z 24011KT 14/00 A2987 RMK A01 T01420004  RH  039%=      5-min Rain = 0
KRRS 132102Z 24013KT 14/00 A2987 RMK A01 T01420003  RH  039%=      5-min Rain = 0
KRRS 132103Z 23011KT 14/00 A2987 RMK A01 T01420003  RH  039%=      5-min Rain = 0
KRRS 132104Z 24010KT 14/00 A2986 RMK A01 T01420002  RH  038%=      5-min Rain = 0
KRRS 132105Z 24011KT 14/01 A2986 RMK A01 T01430005  RH  039%=      5-min Rain = 0
KRRS 132106Z 24011KT 14/00 A2987 RMK A01 T01440003  RH  038%=      5-min Rain = 0
KRRS 132107Z 23011KT 14/00 A2987 RMK A01 T01430002  RH  038%=      5-min Rain = 0
KRRS 132108Z 23012KT 14/01 A2987 RMK A01 T01430006  RH  039%=      5-min Rain = 0
KRRS 132109Z 24011KT 14/00 A2987 RMK A01 T01430004  RH  039%=      5-min Rain = 0
KRRS 132110Z 24013KT 14/00 A2987 RMK A01 T01430001  RH  038%=      5-min Rain = 0
KRRS 132111Z 24015KT 14/M01 A2987 RMK A01 T01431005  RH  036%=      5-min Rain = 0
KRRS 132112Z 23012KT 14/M00 A2987 RMK A01 T01411004  RH  037%=      5-min Rain = 0
KRRS 132113Z 24012G17KT 14/M00 A2987 RMK A01 T01411003  RH  037%=      5-min Rain = 0
KRRS 132114Z 24014KT 14/M01 A2987 RMK A01 T01411005  RH  037%=      5-min Rain = 0
KRRS 132115Z 25013KT 14/M00 A2987 RMK A01 T01401004  RH  037%=      5-min Rain = 0
KRRS 132116Z 25013KT 14/M00 A2987 RMK A01 T01391001  RH  038%=      5-min Rain = 0
KRRS 132117Z 24014KT 14/M00 A2987 RMK A01 T01401001  RH  038%=      5-min Rain = 0
KRRS 132118Z 24013KT 14/00 A2987 RMK A01 T01400000  RH  038%=      5-min Rain = 0
KRRS 132119Z 24012KT 14/00 A2987 RMK A01 T01410001  RH  038%=      5-min Rain = 0
KRRS 132120Z 25014KT 14/00 A2987 RMK A01 T01410001  RH  038%=      5-min Rain = 0
KRRS 132121Z 23012KT 14/00 A2987 RMK A01 T01400004  RH  039%=      5-min Rain = 0
KRRS 132122Z 23013KT 14/00 A2987 RMK A01 T01410003  RH  039%=      5-min Rain = 0
KRRS 132123Z 23013KT 14/M00 A2987 RMK A01 T01421002  RH  037%=      5-min Rain = 0
KRRS 132124Z 23012KT 14/00 A2987 RMK A01 T014200-0  RH  038%=      5-min Rain = 0
KRRS 132125Z 24013KT 14/00 A2987 RMK A01 T01420003  RH  039%=      5-min Rain = 0
KRRS 132126Z 24015KT 14/00 A2987 RMK A01 T01420002  RH  038%=      5-min Rain = 0
KRRS 132127Z 23012KT 14/00 A2987 RMK A01 T01410001  RH  038%=      5-min Rain = 0
KRRS 132128Z 23014KT 14/00 A2987 RMK A01 T01410003  RH  039%=      5-min Rain = 0
KRRS 132129Z 24015KT 14/00 A2987 RMK A01 T01410003  RH  039%=      5-min Rain = 0
KRRS 132130Z 23015KT 14/00 A2987 RMK A01 T01410002  RH  038%=      5-min Rain = 0
KRRS 132131Z 23014KT 14/00 A2987 RMK A01 T01420004  RH  039%=      5-min Rain = 0
KRRS 132132Z 23014KT 14/01 A2987 RMK A01 T01420005  RH  039%=      5-min Rain = 0
KRRS 132133Z 23012KT 14/01 A2987 RMK A01 T01420005  RH  039%=      5-min Rain = 0
KRRS 132134Z 23013KT 14/01 A2987 RMK A01 T01420007  RH  040%=      5-min Rain = 0
KRRS 132135Z 23012G17KT 14/01 A2987 RMK A01 T01420007  RH  040%=      5-min Rain = 0
KRRS 132136Z 24012KT 14/01 A2987 RMK A01 T01420010  RH  041%=      5-min Rain = 0
KRRS 132137Z 24012KT 14/01 A2987 RMK A01 T01420011  RH  041%=      5-min Rain = 0
KRRS 132138Z 23012KT 14/01 A2987 RMK A01 T01430011  RH  041%=      5-min Rain = 0
KRRS 132139Z 23011KT 14/01 A2987 RMK A01 T01440011  RH  040%=      5-min Rain = 0
KRRS 132140Z 23011G16KT 15/01 A2987 RMK A01 T01450011  RH  040%=      5-min Rain = 0
KRRS 132141Z 23012KT 15/01 A2987 RMK A01 T01450010  RH  040%=      5-min Rain = 0
KRRS 132142Z 23010KT 14/01 A2987 RMK A01 T01440011  RH  040%=      5-min Rain = 0
KRRS 132143Z 22008KT 14/01 A2987 RMK A01 T01430012  RH  041%=      5-min Rain = 0
KRRS 132144Z 23011KT 15/01 A2987 RMK A01 T01450013  RH  041%=      5-min Rain = 0
KRRS 132145Z 24010KT 15/01 A2988 RMK A01 T01450012  RH  040%=      5-min Rain = 0
KRRS 132146Z 24009KT 15/01 A2988 RMK A01 T01460007  RH  039%=      5-min Rain = 0
KRRS 132147Z 24007KT 15/01 A2988 RMK A01 T01450007  RH  039%=      5-min Rain = 0
KRRS 132148Z 24007KT 15/01 A2988 RMK A01 T01450009  RH  040%=      5-min Rain = 0
KRRS 132149Z 22008KT 15/01 A2988 RMK A01 T01460012  RH  040%=      5-min Rain = 0
KRRS 132150Z 22009G14KT 15/01 A2987 RMK A01 T01460014  RH  041%=      5-min Rain = 0
KRRS 132151Z 22011KT 15/01 A2987 RMK A01 T01450013  RH  041%=      5-min Rain = 0
KRRS 132152Z 23009KT 14/02 A2987 RMK A01 T01440015  RH  041%=      5-min Rain = 0
KRRS 132153Z 23010KT 14/01 A2987 RMK A01 T01440013  RH  041%=      5-min Rain = 0
KRRS 132154Z 24010KT 14/02 A2987 RMK A01 T01440015  RH  041%=      5-min Rain = 0
KRRS 132155Z 23009KT 15/01 A2987 RMK A01 T01450012  RH  040%=      5-min Rain = 0
KRRS 132156Z 24008KT 15/01 A2987 RMK A01 T01450010  RH  040%=      5-min Rain = 0
KRRS 132157Z 25010KT 15/01 A2987 RMK A01 T01450007  RH  039%=      5-min Rain = 0
KRRS 132158Z 25012KT 15/00 A2987 RMK A01 T01460002  RH  038%=      5-min Rain = 0
KRRS 132159Z 25012KT 15/00 A2987 RMK A01 T01450000  RH  037%=      5-min Rain = 0
KRRS 132200Z 25010KT 14/00 A2987 RMK A01 T01440001  RH  038%=      5-min Rain = 0
KRRS 132201Z 25010KT 14/00 A2987 RMK A01 T01440002  RH  038%=      5-min Rain = 0
KRRS 132202Z 24007KT 14/00 A2987 RMK A01 T01440004  RH  038%=      5-min Rain = 0
KRRS 132203Z 23010KT 15/01 A2987 RMK A01 T01470005  RH  038%=      5-min Rain = 0
KRRS 132204Z 24009KT 15/00 A2987 RMK A01 T01480001  RH  037%=      5-min Rain = 0
KRRS 132205Z 23010KT 15/00 A2987 RMK A01 T01470002  RH  037%=      5-min Rain = 0
KRRS 132206Z 23010KT 15/00 A2987 RMK A01 T01470000  RH  037%=      5-min Rain = 0
KRRS 132207Z 22011KT 15/00 A2987 RMK A01 T014600-0  RH  037%=      5-min Rain = 0
KRRS 132208Z 23010KT 15/M00 A2987 RMK A01 T01461001  RH  037%=      5-min Rain = 0
KRRS 132209Z 24010KT 15/M00 A2987 RMK A01 T01451001  RH  037%=      5-min Rain = 0
KRRS 132210Z 24008KT 15/M00 A2987 RMK A01 T01451002  RH  037%=      5-min Rain = 0
KRRS 132211Z 23011KT 15/M00 A2987 RMK A01 T01451002  RH  037%=      5-min Rain = 0
KRRS 132212Z 24008KT 15/M00 A2987 RMK A01 T01451001  RH  037%=      5-min Rain = 0
KRRS 132213Z 24010KT 15/M00 A2987 RMK A01 T01451001  RH  037%=      5-min Rain = 0
KRRS 132214Z 24008KT 15/00 A2987 RMK A01 T014500-0  RH  037%=      5-min Rain = 0
KRRS 132215Z 24011KT 15/M00 A2987 RMK A01 T01461002  RH  036%=      5-min Rain = 0
KRRS 132216Z 24011KT 15/M00 A2987 RMK A01 T01461002  RH  036%=      5-min Rain = 0
KRRS 132217Z 24010KT 15/M00 A2987 RMK A01 T01461002  RH  036%=      5-min Rain = 0
KRRS 132218Z 23010KT 15/00 A2987 RMK A01 T01460000  RH  037%=      5-min Rain = 0
KRRS 132219Z 23013KT 15/M00 A2987 RMK A01 T01471002  RH  036%=      5-min Rain = 0
KRRS 132220Z 24012KT 15/M00 A2987 RMK A01 T01471003  RH  036%=      5-min Rain = 0
KRRS 132221Z 23011KT 15/M00 A2987 RMK A01 T01461002  RH  036%=      5-min Rain = 0
KRRS 132222Z 24012KT 15/M00 A2987 RMK A01 T01461002  RH  036%=      5-min Rain = 0
KRRS 132223Z 24013KT 15/M00 A2987 RMK A01 T01451002  RH  036%=      5-min Rain = 0
KRRS 132224Z 23014KT 15/M00 A2987 RMK A01 T01451003  RH  036%=      5-min Rain = 0
KRRS 132225Z 23013KT 14/M00 A2987 RMK A01 T01441002  RH  037%=      5-min Rain = 0
KRRS 132226Z 23012KT 14/M00 A2987 RMK A01 T01431002  RH  037%=      5-min Rain = 0
KRRS 132227Z 23011G16KT 14/00 A2987 RMK A01 T01430000  RH  037%=      5-min Rain = 0
KRRS 132228Z 24011KT 14/00 A2987 RMK A01 T01430002  RH  038%=      5-min Rain = 0
KRRS 132229Z 24010KT 14/00 A2987 RMK A01 T01430001  RH  038%=      5-min Rain = 0
KRRS 132230Z 24011KT 14/00 A2987 RMK A01 T01430000  RH  037%=      5-min Rain = 0
KRRS 132231Z 24012KT 14/00 A2987 RMK A01 T014300-0  RH  037%=      5-min Rain = 0
KRRS 132232Z 24011KT 14/00 A2987 RMK A01 T01430000  RH  038%=      5-min Rain = 0
KRRS 132233Z 24011KT 14/00 A2987 RMK A01 T014300-0  RH  037%=      5-min Rain = 0
KRRS 132234Z 24012KT 14/00 A2987 RMK A01 T01430000  RH  038%=      5-min Rain = 0
KRRS 132235Z 24013KT 14/M00 A2987 RMK A01 T01431001  RH  037%=      5-min Rain = 0
KRRS 132236Z 24010KT 14/M00 A2987 RMK A01 T01421001  RH  038%=      5-min Rain = 0
KRRS 132237Z 24009KT 14/00 A2987 RMK A01 T01410001  RH  038%=      5-min Rain = 0
KRRS 132238Z 25009KT 14/00 A2987 RMK A01 T01400000  RH  038%=      5-min Rain = 0
KRRS 132239Z 24008KT 14/00 A2987 RMK A01 T01400002  RH  039%=      5-min Rain = 0
KRRS 132240Z 24009KT 14/00 A2987 RMK A01 T01390002  RH  039%=      5-min Rain = 0
KRRS 132241Z 24010KT 14/00 A2987 RMK A01 T01380002  RH  039%=      5-min Rain = 0
KRRS 132242Z 23010KT 14/00 A2987 RMK A01 T01380000  RH  039%=      5-min Rain = 0
KRRS 132243Z 24009KT 14/00 A2987 RMK A01 T01380001  RH  039%=      5-min Rain = 0
KRRS 132244Z 23007KT 14/00 A2987 RMK A01 T01380003  RH  040%=      5-min Rain = 0
KRRS 132245Z 23007KT 14/01 A2987 RMK A01 T01360006  RH  041%=      5-min Rain = 0
KRRS 132246Z 23007KT 14/01 A2987 RMK A01 T01350007  RH  042%=      5-min Rain = 0
KRRS 132247Z 23007KT 13/01 A2987 RMK A01 T01340009  RH  042%=      5-min Rain = 0
KRRS 132248Z 22007KT 13/01 A2987 RMK A01 T01330009  RH  043%=      5-min Rain = 0
KRRS 132249Z 21008KT 13/01 A2987 RMK A01 T01330010  RH  043%=      5-min Rain = 0
KRRS 132250Z 20007KT 13/02 A2987 RMK A01 T01300018  RH  046%=      5-min Rain = 0
KRRS 132251Z 20009KT 13/02 A2987 RMK A01 T01260021  RH  049%=      5-min Rain = 0
KRRS 132252Z 20008KT 12/02 A2987 RMK A01 T01220021  RH  050%=      5-min Rain = 0
KRRS 132253Z 20009KT 12/02 A2987 RMK A01 T01190022  RH  051%=      5-min Rain = 0
KRRS 132254Z 20008KT 12/02 A2987 RMK A01 T01170022  RH  052%=      5-min Rain = 0
KRRS 132255Z 21008KT 12/02 A2987 RMK A01 T01150022  RH  053%=      5-min Rain = 0
KRRS 132256Z 21009KT 12/02 A2987 RMK A01 T01150022  RH  053%=      5-min Rain = 0
KRRS 132257Z 21008KT 11/02 A2987 RMK A01 T01140022  RH  053%=      5-min Rain = 0
KRRS 132258Z 21009KT 11/02 A2987 RMK A01 T01140022  RH  053%=      5-min Rain = 0
KRRS 132259Z 22009KT 11/02 A2987 RMK A01 T01140022  RH  053%=      5-min Rain = 0
KRRS 132300Z 22009KT 11/02 A2987 RMK A01 T01140022  RH  053%=      5-min Rain = 0
KRRS 132301Z 22009KT 11/02 A2987 RMK A01 T01140021  RH  053%=      5-min Rain = 0
KRRS 132302Z 21008KT 11/02 A2987 RMK A01 T01140021  RH  053%=      5-min Rain = 0
KRRS 132303Z 21009KT 11/02 A2987 RMK A01 T01140021  RH  053%=      5-min Rain = 0
KRRS 132304Z 22010KT 11/02 A2987 RMK A01 T01140021  RH  053%=      5-min Rain = 0
KRRS 132305Z 22009KT 11/02 A2987 RMK A01 T01140020  RH  053%=      5-min Rain = 0
KRRS 132306Z 21009KT 11/02 A2987 RMK A01 T01140021  RH  053%=      5-min Rain = 0
KRRS 132307Z 22011KT 11/02 A2987 RMK A01 T01140020  RH  053%=      5-min Rain = 0
KRRS 132308Z 22009KT 11/02 A2987 RMK A01 T01140019  RH  052%=      5-min Rain = 0
KRRS 132309Z 21007KT 11/02 A2987 RMK A01 T01140020  RH  053%=      5-min Rain = 0
KRRS 132310Z 21008KT 11/02 A2987 RMK A01 T01140021  RH  053%=      5-min Rain = 0
KRRS 132311Z 21009KT 11/02 A2987 RMK A01 T01140021  RH  053%=      5-min Rain = 0
KRRS 132312Z 21008KT 11/02 A2987 RMK A01 T01140020  RH  053%=      5-min Rain = 0
KRRS 132313Z 21009KT 11/02 A2987 RMK A01 T01130020  RH  052%=      5-min Rain = 0
KRRS 132314Z 21008KT 11/02 A2987 RMK A01 T01130020  RH  053%=      5-min Rain = 0
KRRS 132315Z 21010KT 11/02 A2987 RMK A01 T01130020  RH  053%=      5-min Rain = 0
KRRS 132316Z 22009KT 11/02 A2987 RMK A01 T01130019  RH  052%=      5-min Rain = 0
KRRS 132317Z 22009KT 11/02 A2987 RMK A01 T01130020  RH  053%=      5-min Rain = 0
KRRS 132318Z 22009KT 11/02 A2987 RMK A01 T01130019  RH  052%=      5-min Rain = 0
KRRS 132319Z 22010KT 11/02 A2986 RMK A01 T01130020  RH  053%=      5-min Rain = 0
KRRS 132320Z 22010KT 11/02 A2986 RMK A01 T01130020  RH  053%=      5-min Rain = 0
KRRS 132321Z 22009KT 11/02 A2986 RMK A01 T01130020  RH  053%=      5-min Rain = 0
KRRS 132322Z 22010KT 11/02 A2986 RMK A01 T01120019  RH  053%=      5-min Rain = 0
KRRS 132323Z 22010KT 11/02 A2986 RMK A01 T01120019  RH  053%=      5-min Rain = 0
KRRS 132324Z 21010KT 11/02 A2986 RMK A01 T01110019  RH  053%=      5-min Rain = 0
KRRS 132325Z 21009KT 11/02 A2986 RMK A01 T01110019  RH  053%=      5-min Rain = 0
KRRS 132326Z 21009KT 11/02 A2986 RMK A01 T01110019  RH  053%=      5-min Rain = 0
KRRS 132327Z 22008KT 11/02 A2986 RMK A01 T01100020  RH  054%=      5-min Rain = 0
KRRS 132328Z 21008KT 11/02 A2986 RMK A01 T01090020  RH  054%=      5-min Rain = 0
KRRS 132329Z 21007KT 11/02 A2986 RMK A01 T01090019  RH  054%=      5-min Rain = 0
KRRS 132330Z 21007KT 11/02 A2986 RMK A01 T01080020  RH  054%=      5-min Rain = 0
KRRS 132331Z 21007KT 11/02 A2986 RMK A01 T01070019  RH  055%=      5-min Rain = 0
KRRS 132332Z 21007KT 11/02 A2986 RMK A01 T01050020  RH  055%=      5-min Rain = 0
KRRS 132333Z 21007KT 10/02 A2986 RMK A01 T01040020  RH  056%=      5-min Rain = 0
KRRS 132334Z 21007KT 10/02 A2986 RMK A01 T01030019  RH  056%=      5-min Rain = 0
KRRS 132335Z 21006KT 10/02 A2986 RMK A01 T01020019  RH  056%=      5-min Rain = 0
KRRS 132336Z 22008KT 10/02 A2986 RMK A01 T01020019  RH  056%=      5-min Rain = 0
KRRS 132337Z 22007KT 10/02 A2986 RMK A01 T01010018  RH  056%=      5-min Rain = 0
KRRS 132338Z 22007KT 10/02 A2986 RMK A01 T01010019  RH  057%=      5-min Rain = 0
KRRS 132339Z 21007KT 10/02 A2986 RMK A01 T01000018  RH  057%=      5-min Rain = 0
KRRS 132340Z 21007KT 10/02 A2986 RMK A01 T00990018  RH  057%=      5-min Rain = 0
KRRS 132341Z 21006KT 10/02 A2985 RMK A01 T00970018  RH  058%=      5-min Rain = 0
KRRS 132342Z 21007KT 10/02 A2985 RMK A01 T00950018  RH  058%=      5-min Rain = 0
KRRS 132343Z 20008KT 09/02 A2985 RMK A01 T00930018  RH  059%=      5-min Rain = 0
KRRS 132344Z 21008KT 09/02 A2985 RMK A01 T00920018  RH  060%=      5-min Rain = 0
KRRS 132345Z 21007KT 09/02 A2985 RMK A01 T00920016  RH  059%=      5-min Rain = 0
KRRS 132346Z 21007KT 09/02 A2985 RMK A01 T00920016  RH  059%=      5-min Rain = 0
KRRS 132347Z 21007KT 09/02 A2985 RMK A01 T00920016  RH  059%=      5-min Rain = 0
KRRS 132348Z 21007KT 09/02 A2985 RMK A01 T00900015  RH  059%=      5-min Rain = 0
KRRS 132349Z 22007KT 09/01 A2985 RMK A01 T00890014  RH  060%=      5-min Rain = 0
KRRS 132350Z 21008KT 09/01 A2985 RMK A01 T00860014  RH  060%=      5-min Rain = 0
KRRS 132351Z 21008KT 09/01 A2985 RMK A01 T00850014  RH  061%=      5-min Rain = 0
KRRS 132352Z 21008KT 08/01 A2985 RMK A01 T00830014  RH  062%=      5-min Rain = 0
KRRS 132353Z 21007KT 08/01 A2985 RMK A01 T00830014  RH  062%=      5-min Rain = 0
KRRS 132354Z 21007KT 08/01 A2985 RMK A01 T00810014  RH  062%=      5-min Rain = 0
KRRS 132355Z 21007KT 08/01 A2985 RMK A01 T00790013  RH  063%=      5-min Rain = 0
KRRS 132356Z 20007KT 08/01 A2985 RMK A01 T00770012  RH  064%=      5-min Rain = 0
KRRS 132357Z 20007KT 08/01 A2985 RMK A01 T00750012  RH  064%=      5-min Rain = 0
KRRS 132358Z 19007KT 07/01 A2986 RMK A01 T00740012  RH  065%=      5-min Rain = 0
KRRS 132359Z 19007KT 07/01 A2986 RMK A01 T00730012  RH  065%=      5-min Rain = 0
KRRS 140000Z 19008KT 07/01 A2986 RMK A01 T00720012  RH  065%=      5-min Rain = 0
KRRS 140001Z 19007KT 07/01 A2986 RMK A01 T00710012  RH  066%=      5-min Rain = 0
KRRS 140002Z 19007KT 07/01 A2985 RMK A01 T00700011  RH  066%=      5-min Rain = 0
KRRS 140003Z 19007KT 07/01 A2985 RMK A01 T00670010  RH  067%=      5-min Rain = 0
KRRS 140004Z 19007KT 07/01 A2985 RMK A01 T00660011  RH  068%=      5-min Rain = 0
KRRS 140005Z 18007KT 07/01 A2985 RMK A01 T00660011  RH  068%=      5-min Rain = 0
KRRS 140006Z 19008KT 07/01 A2985 RMK A01 T00660013  RH  069%=      5-min Rain = 0
KRRS 140007Z 20008KT 07/01 A2985 RMK A01 T00660014  RH  069%=      5-min Rain = 0
KRRS 140008Z 19007KT 07/01 A2985 RMK A01 T00660013  RH  069%=      5-min Rain = 0
KRRS 140009Z 19008KT 06/01 A2985 RMK A01 T00640011  RH  069%=      5-min Rain = 0
KRRS 140010Z 19008KT 06/01 A2986 RMK A01 T00630011  RH  069%=      5-min Rain = 0
KRRS 140011Z 19008KT 06/01 A2986 RMK A01 T00620010  RH  069%=      5-min Rain = 0
KRRS 140012Z 20008KT 06/01 A2986 RMK A01 T00620011  RH  070%=      5-min Rain = 0
KRRS 140013Z 20008KT 06/01 A2986 RMK A01 T00640011  RH  069%=      5-min Rain = 0
KRRS 140014Z 20008KT 06/01 A2985 RMK A01 T00630010  RH  069%=      5-min Rain = 0
KRRS 140015Z 20009KT 06/01 A2985 RMK A01 T00610009  RH  069%=      5-min Rain = 0
KRRS 140016Z 20009KT 06/01 A2985 RMK A01 T00590008  RH  070%=      5-min Rain = 0
KRRS 140017Z 20009KT 06/01 A2985 RMK A01 T00580010  RH  071%=      5-min Rain = 0
KRRS 140018Z 21009KT 06/01 A2985 RMK A01 T00590009  RH  070%=      5-min Rain = 0
KRRS 140019Z 21010KT 06/01 A2985 RMK A01 T00580010  RH  071%=      5-min Rain = 0
KRRS 140020Z 21010KT 06/01 A2985 RMK A01 T00580010  RH  072%=      5-min Rain = 0
KRRS 140021Z 21009KT 06/01 A2985 RMK A01 T00580010  RH  071%=      5-min Rain = 0
KRRS 140022Z 21010KT 06/01 A2985 RMK A01 T00590010  RH  071%=      5-min Rain = 0
KRRS 140023Z 21009KT 06/01 A2985 RMK A01 T00580009  RH  071%=      5-min Rain = 0
KRRS 140024Z 21009KT 06/01 A2985 RMK A01 T00570009  RH  071%=      5-min Rain = 0
KRRS 140025Z 22009KT 06/01 A2986 RMK A01 T00570010  RH  072%=      5-min Rain = 0
KRRS 140026Z 21009KT 06/01 A2986 RMK A01 T00580011  RH  072%=      5-min Rain = 0
KRRS 140027Z 21009KT 06/01 A2986 RMK A01 T00590011  RH  071%=      5-min Rain = 0
KRRS 140028Z 22009KT 06/01 A2986 RMK A01 T00580010  RH  071%=      5-min Rain = 0
KRRS 140029Z 22009KT 06/01 A2986 RMK A01 T00580010  RH  071%=      5-min Rain = 0
KRRS 140030Z 22009KT 06/01 A2986 RMK A01 T00570010  RH  072%=      5-min Rain = 0
KRRS 140031Z 22009KT 06/01 A2986 RMK A01 T00560009  RH  072%=      5-min Rain = 0
KRRS 140032Z 21009KT 06/01 A2986 RMK A01 T00550009  RH  072%=      5-min Rain = 0
KRRS 140033Z 22009KT 06/01 A2986 RMK A01 T00550010  RH  073%=      5-min Rain = 0
KRRS 140034Z 22008KT 06/01 A2986 RMK A01 T00560011  RH  073%=      5-min Rain = 0
KRRS 140035Z 22009KT 06/01 A2986 RMK A01 T00580012  RH  072%=      5-min Rain = 0
KRRS 140036Z 23009KT 06/01 A2986 RMK A01 T00620013  RH  071%=      5-min Rain = 0
KRRS 140037Z 23009KT 07/01 A2986 RMK A01 T00650013  RH  069%=      5-min Rain = 0
KRRS 140038Z 23010KT 06/01 A2986 RMK A01 T00630012  RH  070%=      5-min Rain = 0
KRRS 140039Z 23011KT 06/01 A2986 RMK A01 T00630012  RH  070%=      5-min Rain = 0
KRRS 140040Z 23012KT 07/01 A2986 RMK A01 T00670013  RH  069%=      5-min Rain = 0
KRRS 140041Z 23013KT 07/01 A2987 RMK A01 T00690013  RH  068%=      5-min Rain = 0
KRRS 140042Z 23013KT 07/01 A2987 RMK A01 T00710013  RH  067%=      5-min Rain = 0
KRRS 140043Z 23012KT 07/01 A2987 RMK A01 T00710013  RH  066%=      5-min Rain = 0
KRRS 140044Z 23011KT 07/01 A2987 RMK A01 T00710013  RH  067%=      5-min Rain = 0
KRRS 140045Z 24010KT 07/01 A2987 RMK A01 T00700012  RH  067%=      5-min Rain = 0
KRRS 140046Z 23010KT 07/01 A2987 RMK A01 T00690012  RH  067%=      5-min Rain = 0
KRRS 140047Z 24009KT 07/01 A2987 RMK A01 T00680012  RH  067%=      5-min Rain = 0
KRRS 140048Z 24009KT 07/01 A2986 RMK A01 T00670012  RH  068%=      5-min Rain = 0
KRRS 140049Z 24010KT 07/01 A2986 RMK A01 T00660012  RH  068%=      5-min Rain = 0
KRRS 140050Z 23010KT 06/01 A2986 RMK A01 T00640012  RH  069%=      5-min Rain = 0
KRRS 140051Z 23011KT 06/01 A2986 RMK A01 T00630011  RH  069%=      5-min Rain = 0
KRRS 140052Z 23010KT 06/01 A2986 RMK A01 T00630011  RH  069%=      5-min Rain = 0
KRRS 140053Z 24010KT 06/01 A2986 RMK A01 T00620011  RH  069%=      5-min Rain = 0
KRRS 140054Z 24009KT 06/01 A2986 RMK A01 T00610010  RH  070%=      5-min Rain = 0
KRRS 140055Z 24010KT 06/01 A2987 RMK A01 T00600010  RH  070%=      5-min Rain = 0
KRRS 140056Z 24009KT 06/01 A2987 RMK A01 T00590010  RH  071%=      5-min Rain = 0
KRRS 140057Z 24009KT 06/01 A2987 RMK A01 T00590010  RH  071%=      5-min Rain = 0
KRRS 140058Z 25009KT 06/01 A2987 RMK A01 T00580010  RH  071%=      5-min Rain = 0
KRRS 140059Z 24009KT 06/01 A2986 RMK A01 T00560009  RH  072%=      5-min Rain = 0
KRRS 140100Z 24009KT 06/01 A2986 RMK A01 T00550009  RH  072%=      5-min Rain = 0
KRRS 140101Z 24010KT 05/01 A2986 RMK A01 T00540009  RH  073%=      5-min Rain = 0
KRRS 140102Z 24010KT 05/01 A2986 RMK A01 T00530009  RH  073%=      5-min Rain = 0
KRRS 140103Z 24010KT 05/01 A2986 RMK A01 T00520008  RH  074%=      5-min Rain = 0
KRRS 140104Z 24010KT 05/01 A2986 RMK A01 T00520009  RH  074%=      5-min Rain = 0
KRRS 140105Z 24010KT 05/01 A2986 RMK A01 T00520008  RH  074%=      5-min Rain = 0
KRRS 140106Z 24010KT 05/01 A2986 RMK A01 T00510008  RH  074%=      5-min Rain = 0
KRRS 140107Z 24010KT 05/01 A2986 RMK A01 T00490007  RH  074%=      5-min Rain = 0
KRRS 140108Z 23010KT 05/01 A2986 RMK A01 T00480007  RH  075%=      5-min Rain = 0
KRRS 140109Z 24010KT 05/01 A2986 RMK A01 T00480007  RH  075%=      5-min Rain = 0
KRRS 140110Z 24010KT 05/01 A2986 RMK A01 T00490007  RH  074%=      5-min Rain = 0
KRRS 140111Z 24010KT 05/01 A2986 RMK A01 T00500008  RH  074%=      5-min Rain = 0
KRRS 140112Z 23010KT 05/01 A2986 RMK A01 T00500008  RH  074%=      5-min Rain = 0
KRRS 140113Z 23010KT 05/01 A2986 RMK A01 T00510008  RH  074%=      5-min Rain = 0
KRRS 140114Z 23009KT 05/01 A2986 RMK A01 T00530008  RH  073%=      5-min Rain = 0
KRRS 140115Z 23008KT 05/01 A2986 RMK A01 T00540008  RH  072%=      5-min Rain = 0
KRRS 140116Z 23008KT 05/01 A2986 RMK A01 T00540007  RH  072%=      5-min Rain = 0
KRRS 140117Z 22008KT 06/01 A2986 RMK A01 T00550007  RH  071%=      5-min Rain = 0
KRRS 140118Z 22009KT 05/01 A2986 RMK A01 T00540006  RH  071%=      5-min Rain = 0
KRRS 140119Z 22009KT 05/01 A2986 RMK A01 T00530005  RH  071%=      5-min Rain = 0
KRRS 140120Z 22009KT 05/00 A2986 RMK A01 T00500004  RH  072%=      5-min Rain = 0
KRRS 140121Z 22009KT 05/01 A2986 RMK A01 T00490005  RH  073%=      5-min Rain = 0
KRRS 140122Z 22009KT 05/01 A2986 RMK A01 T00480005  RH  074%=      5-min Rain = 0
KRRS 140123Z 22009KT 05/01 A2986 RMK A01 T00480005  RH  074%=      5-min Rain = 0
KRRS 140124Z 22009KT 05/01 A2985 RMK A01 T00470006  RH  074%=      5-min Rain = 0
KRRS 140125Z 23009KT 05/01 A2985 RMK A01 T00480005  RH  074%=      5-min Rain = 0
KRRS 140126Z 23009KT 05/01 A2985 RMK A01 T00490005  RH  073%=      5-min Rain = 0
KRRS 140127Z 23009KT 05/01 A2985 RMK A01 T00490005  RH  073%=      5-min Rain = 0
KRRS 140128Z 23010KT 05/01 A2985 RMK A01 T00490005  RH  073%=      5-min Rain = 0
KRRS 140129Z 23010KT 05/01 A2985 RMK A01 T00480005  RH  073%=      5-min Rain = 0
KRRS 140130Z 23010KT 05/00 A2985 RMK A01 T00470004  RH  074%=      5-min Rain = 0
KRRS 140131Z 23010KT 05/00 A2985 RMK A01 T00460004  RH  074%=      5-min Rain = 0
KRRS 140132Z 23010KT 05/00 A2985 RMK A01 T00460004  RH  074%=      5-min Rain = 0
KRRS 140133Z 23010KT 05/01 A2985 RMK A01 T00470005  RH  074%=      5-min Rain = 0
KRRS 140134Z 23011KT 05/01 A2985 RMK A01 T00480005  RH  074%=      5-min Rain = 0
KRRS 140135Z 23010KT 05/01 A2985 RMK A01 T00490005  RH  073%=      5-min Rain = 0
KRRS 140136Z 23011KT 05/01 A2985 RMK A01 T00500006  RH  073%=      5-min Rain = 0
KRRS 140137Z 23010KT 05/01 A2985 RMK A01 T00510006  RH  073%=      5-min Rain = 0
KRRS 140138Z 23010KT 05/01 A2985 RMK A01 T00520006  RH  072%=      5-min Rain = 0
KRRS 140139Z 24010KT 05/01 A2985 RMK A01 T00520005  RH  072%=      5-min Rain = 0
KRRS 140140Z 24010KT 05/01 A2985 RMK A01 T00520005  RH  072%=      5-min Rain = 0
KRRS 140141Z 24011KT 05/01 A2985 RMK A01 T00510005  RH  072%=      5-min Rain = 0
KRRS 140142Z 23011KT 05/01 A2985 RMK A01 T00510005  RH  072%=      5-min Rain = 0
KRRS 140143Z 23010KT 05/01 A2985 RMK A01 T00510005  RH  072%=      5-min Rain = 0
KRRS 140144Z 23011KT 05/01 A2985 RMK A01 T00500005  RH  072%=      5-min Rain = 0
KRRS 140145Z 23011KT 05/00 A2985 RMK A01 T00500004  RH  072%=      5-min Rain = 0
KRRS 140146Z 24010KT 05/00 A2985 RMK A01 T00490004  RH  072%=      5-min Rain = 0
KRRS 140147Z 23011KT 05/00 A2985 RMK A01 T00490004  RH  073%=      5-min Rain = 0
KRRS 140148Z 23011KT 05/00 A2985 RMK A01 T00490004  RH  073%=      5-min Rain = 0
KRRS 140149Z 24011KT 05/00 A2985 RMK A01 T00490004  RH  073%=      5-min Rain = 0
KRRS 140150Z 24011KT 05/00 A2985 RMK A01 T00480004  RH  073%=      5-min Rain = 0
KRRS 140151Z 24012KT 05/00 A2985 RMK A01 T00480004  RH  073%=      5-min Rain = 0
KRRS 140152Z 24011KT 05/00 A2985 RMK A01 T00490004  RH  073%=      5-min Rain = 0
KRRS 140153Z 23011KT 05/00 A2985 RMK A01 T00490004  RH  073%=      5-min Rain = 0
KRRS 140154Z 23012KT 05/00 A2985 RMK A01 T00500004  RH  072%=      5-min Rain = 0
KRRS 140155Z 23011KT 05/00 A2985 RMK A01 T00510004  RH  072%=      5-min Rain = 0
KRRS 140156Z 23011KT 05/00 A2985 RMK A01 T00520004  RH  071%=      5-min Rain = 0
KRRS 140157Z 23011KT 05/00 A2985 RMK A01 T00520004  RH  071%=      5-min Rain = 0
KRRS 140158Z 23010KT 05/00 A2985 RMK A01 T00530004  RH  071%=      5-min Rain = 0
KRRS 140159Z 24010KT 05/00 A2985 RMK A01 T00520004  RH  071%=      5-min Rain = 0
KRRS 140200Z 24010KT 05/00 A2985 RMK A01 T00510003  RH  071%=      5-min Rain = 0
KRRS 140201Z 25009KT 05/00 A2985 RMK A01 T00500003  RH  072%=      5-min Rain = 0
KRRS 140202Z 26009KT 05/00 A2985 RMK A01 T00490003  RH  072%=      5-min Rain = 0
KRRS 140203Z 26009KT 05/00 A2985 RMK A01 T00480003  RH  073%=      5-min Rain = 0
KRRS 140204Z 26009KT 05/00 A2985 RMK A01 T00460002  RH  073%=      5-min Rain = 0
KRRS 140205Z 24011KT 05/00 A2984 RMK A01 T00450002  RH  074%=      5-min Rain = 0
KRRS 140206Z 24011KT 05/00 A2984 RMK A01 T00450002  RH  074%=      5-min Rain = 0
KRRS 140207Z 24011KT 05/00 A2984 RMK A01 T00450003  RH  074%=      5-min Rain = 0
KRRS 140208Z 24011KT 05/00 A2984 RMK A01 T00470003  RH  073%=      5-min Rain = 0
KRRS 140209Z 24011KT 05/00 A2984 RMK A01 T00480003  RH  073%=      5-min Rain = 0
KRRS 140210Z 24011KT 05/00 A2984 RMK A01 T00480003  RH  073%=      5-min Rain = 0
KRRS 140211Z 24010KT 05/00 A2984 RMK A01 T00500004  RH  072%=      5-min Rain = 0
KRRS 140212Z 24010KT 05/00 A2984 RMK A01 T00500003  RH  072%=      5-min Rain = 0
KRRS 140213Z 23010KT 05/00 A2984 RMK A01 T00500004  RH  072%=      5-min Rain = 0
KRRS 140214Z 23010KT 05/00 A2983 RMK A01 T00490004  RH  072%=      5-min Rain = 0
KRRS 140215Z 23010KT 05/00 A2983 RMK A01 T00480003  RH  072%=      5-min Rain = 0
KRRS 140216Z 23011KT 05/00 A2983 RMK A01 T00460002  RH  073%=      5-min Rain = 0
KRRS 140217Z 23011KT 05/00 A2983 RMK A01 T00450002  RH  074%=      5-min Rain = 0
KRRS 140218Z 23011KT 04/00 A2983 RMK A01 T00440002  RH  074%=      5-min Rain = 0
KRRS 140219Z 23012KT 04/00 A2983 RMK A01 T00430002  RH  074%=      5-min Rain = 0
KRRS 140220Z 23011KT 04/00 A2983 RMK A01 T00430002  RH  075%=      5-min Rain = 0
KRRS 140221Z 23011KT 04/00 A2983 RMK A01 T00440003  RH  074%=      5-min Rain = 0
KRRS 140222Z 24011KT 05/00 A2983 RMK A01 T00450003  RH  074%=      5-min Rain = 0
KRRS 140223Z 24010KT 05/00 A2983 RMK A01 T00460003  RH  074%=      5-min Rain = 0
KRRS 140224Z 23010KT 05/00 A2982 RMK A01 T00460003  RH  074%=      5-min Rain = 0
KRRS 140225Z 24010KT 05/00 A2982 RMK A01 T00460003  RH  074%=      5-min Rain = 0
KRRS 140226Z 24010KT 05/00 A2982 RMK A01 T00460003  RH  074%=      5-min Rain = 0
KRRS 140227Z 24010KT 05/00 A2982 RMK A01 T00460003  RH  074%=      5-min Rain = 0
KRRS 140228Z 24009KT 05/00 A2982 RMK A01 T00450003  RH  074%=      5-min Rain = 0
KRRS 140229Z 23009KT 04/00 A2982 RMK A01 T00440003  RH  074%=      5-min Rain = 0
KRRS 140230Z 23008KT 05/00 A2982 RMK A01 T00450003  RH  074%=      5-min Rain = 0
KRRS 140231Z 24009KT 05/00 A2982 RMK A01 T00450003  RH  074%=      5-min Rain = 0
KRRS 140232Z 23008KT 05/00 A2982 RMK A01 T00450003  RH  074%=      5-min Rain = 0
KRRS 140233Z 23009KT 05/00 A2982 RMK A01 T00450003  RH  074%=      5-min Rain = 0
KRRS 140234Z 23008KT 05/00 A2982 RMK A01 T00450003  RH  074%=      5-min Rain = 0
KRRS 140235Z 23009KT 05/00 A2982 RMK A01 T00450003  RH  074%=      5-min Rain = 0
KRRS 140236Z 23009KT 05/00 A2982 RMK A01 T00450003  RH  074%=      5-min Rain = 0
KRRS 140237Z 23008KT 05/00 A2982 RMK A01 T00450003  RH  074%=      5-min Rain = 0
KRRS 140238Z 23009KT 04/00 A2982 RMK A01 T00440003  RH  074%=      5-min Rain = 0
KRRS 140239Z 23009KT 04/00 A2982 RMK A01 T00440003  RH  075%=      5-min Rain = 0
KRRS 140240Z 23009KT 04/00 A2982 RMK A01 T00430003  RH  075%=      5-min Rain = 0
KRRS 140241Z 23009KT 04/00 A2982 RMK A01 T00430003  RH  075%=      5-min Rain = 0
KRRS 140242Z 23009KT 05/00 A2982 RMK A01 T00450004  RH  075%=      5-min Rain = 0
KRRS 140243Z 23009KT 05/00 A2982 RMK A01 T00460004  RH  074%=      5-min Rain = 0
KRRS 140244Z 23009KT 05/00 A2982 RMK A01 T00470004  RH  074%=      5-min Rain = 0
KRRS 140245Z 23009KT 05/00 A2982 RMK A01 T00480004  RH  073%=      5-min Rain = 0
KRRS 140246Z 23009KT 05/00 A2982 RMK A01 T00490004  RH  073%=      5-min Rain = 0
KRRS 140247Z 24010KT 05/01 A2982 RMK A01 T00500005  RH  073%=      5-min Rain = 0
KRRS 140248Z 24010KT 05/01 A2982 RMK A01 T00510005  RH  072%=      5-min Rain = 0
KRRS 140249Z 24010KT 05/01 A2982 RMK A01 T00510005  RH  072%=      5-min Rain = 0
KRRS 140250Z 24010KT 05/01 A2982 RMK A01 T00520005  RH  072%=      5-min Rain = 0
KRRS 140251Z 24011KT 05/01 A2982 RMK A01 T00520005  RH  072%=      5-min Rain = 0
KRRS 140252Z 24011KT 05/01 A2982 RMK A01 T00530006  RH  071%=      5-min Rain = 0
KRRS 140253Z 25011KT 05/01 A2982 RMK A01 T00540006  RH  071%=      5-min Rain = 0
KRRS 140254Z 25011KT 05/01 A2982 RMK A01 T00540006  RH  071%=      5-min Rain = 0
KRRS 140255Z 24011KT 06/01 A2982 RMK A01 T00550006  RH  071%=      5-min Rain = 0
KRRS 140256Z 25011KT 06/01 A2981 RMK A01 T00560006  RH  070%=      5-min Rain = 0
KRRS 140257Z 25011KT 06/01 A2981 RMK A01 T00560006  RH  070%=      5-min Rain = 0
KRRS 140258Z 25012KT 06/01 A2981 RMK A01 T00570006  RH  070%=      5-min Rain = 0
KRRS 140259Z 25012KT 06/01 A2981 RMK A01 T00580006  RH  069%=      5-min Rain = 0
KRRS 140300Z 25013KT 06/01 A2981 RMK A01 T00600007  RH  068%=      5-min Rain = 0
KRRS 140301Z 25013KT 06/01 A2981 RMK A01 T00620007  RH  068%=      5-min Rain = 0
KRRS 140302Z 25012KT 06/01 A2981 RMK A01 T00630007  RH  067%=      5-min Rain = 0
KRRS 140303Z 26011KT 06/01 A2981 RMK A01 T00640007  RH  067%=      5-min Rain = 0
KRRS 140304Z 27010KT 06/01 A2981 RMK A01 T00630007  RH  067%=      5-min Rain = 0
KRRS 140305Z 27011KT 06/01 A2981 RMK A01 T00600006  RH  068%=      5-min Rain = 0
KRRS 140306Z 26011KT 06/01 A2981 RMK A01 T00580006  RH  069%=      5-min Rain = 0
KRRS 140307Z 26011KT 06/01 A2981 RMK A01 T00570006  RH  070%=      5-min Rain = 0
KRRS 140308Z 26011KT 06/01 A2981 RMK A01 T00560006  RH  070%=      5-min Rain = 0
KRRS 140309Z 25012KT 06/01 A2981 RMK A01 T00560006  RH  070%=      5-min Rain = 0
KRRS 140310Z 25011KT 06/01 A2981 RMK A01 T00570006  RH  070%=      5-min Rain = 0
KRRS 140311Z 25011KT 06/01 A2981 RMK A01 T00580006  RH  069%=      5-min Rain = 0
KRRS 140312Z 25011KT 06/01 A2981 RMK A01 T00590006  RH  069%=      5-min Rain = 0
KRRS 140313Z 25012KT 06/01 A2981 RMK A01 T00600006  RH  068%=      5-min Rain = 0
KRRS 140314Z 25011KT 06/01 A2981 RMK A01 T00600006  RH  068%=      5-min Rain = 0
KRRS 140315Z 26012KT 06/01 A2981 RMK A01 T00600007  RH  068%=      5-min Rain = 0
KRRS 140316Z 25012KT 06/01 A2981 RMK A01 T00610007  RH  068%=      5-min Rain = 0
KRRS 140317Z 26013KT 06/01 A2981 RMK A01 T00620007  RH  068%=      5-min Rain = 0
KRRS 140318Z 26013KT 06/01 A2981 RMK A01 T00630007  RH  067%=      5-min Rain = 0
KRRS 140319Z 26013KT 06/01 A2981 RMK A01 T00640007  RH  067%=      5-min Rain = 0
KRRS 140320Z 25013KT 06/01 A2981 RMK A01 T00640007  RH  067%=      5-min Rain = 0
KRRS 140321Z 26013KT 07/01 A2981 RMK A01 T00650007  RH  066%=      5-min Rain = 0
KRRS 140322Z 26013KT 07/01 A2981 RMK A01 T00650007  RH  066%=      5-min Rain = 0
KRRS 140323Z 26013KT 07/01 A2981 RMK A01 T00650007  RH  066%=      5-min Rain = 0
KRRS 140324Z 26013KT 07/01 A2981 RMK A01 T00650007  RH  066%=      5-min Rain = 0
KRRS 140325Z 26012KT 07/01 A2981 RMK A01 T00650007  RH  066%=      5-min Rain = 0
KRRS 140326Z 26013KT 07/01 A2981 RMK A01 T00660007  RH  066%=      5-min Rain = 0
KRRS 140327Z 26013KT 07/01 A2981 RMK A01 T00650007  RH  066%=      5-min Rain = 0
KRRS 140328Z 25012KT 07/01 A2981 RMK A01 T00650007  RH  066%=      5-min Rain = 0
KRRS 140329Z 25012KT 07/01 A2981 RMK A01 T00650007  RH  067%=      5-min Rain = 0
KRRS 140330Z 25010KT 06/01 A2981 RMK A01 T00630007  RH  067%=      5-min Rain = 0
KRRS 140331Z 25011KT 06/01 A2981 RMK A01 T00620007  RH  068%=      5-min Rain = 0
KRRS 140332Z 25011KT 06/01 A2981 RMK A01 T00620007  RH  068%=      5-min Rain = 0
KRRS 140333Z 25011KT 06/01 A2981 RMK A01 T00620007  RH  068%=      5-min Rain = 0
KRRS 140334Z 26011KT 06/01 A2981 RMK A01 T00630007  RH  068%=      5-min Rain = 0
KRRS 140335Z 25012KT 06/01 A2981 RMK A01 T00630007  RH  068%=      5-min Rain = 0
KRRS 140336Z 26012KT 06/01 A2981 RMK A01 T00620007  RH  068%=      5-min Rain = 0
KRRS 140337Z 26012KT 06/01 A2981 RMK A01 T00610007  RH  068%=      5-min Rain = 0
KRRS 140338Z 25011KT 06/01 A2981 RMK A01 T00610007  RH  068%=      5-min Rain = 0
KRRS 140339Z 25011KT 06/01 A2981 RMK A01 T00600007  RH  069%=      5-min Rain = 0
KRRS 140340Z 26012KT 06/01 A2981 RMK A01 T00600007  RH  069%=      5-min Rain = 0
KRRS 140341Z 26013KT 06/01 A2981 RMK A01 T00610007  RH  069%=      5-min Rain = 0
KRRS 140342Z 25012KT 06/01 A2981 RMK A01 T00610007  RH  068%=      5-min Rain = 0
KRRS 140343Z 25011KT 06/01 A2981 RMK A01 T00610007  RH  069%=      5-min Rain = 0
KRRS 140344Z 25011KT 06/01 A2981 RMK A01 T00600007  RH  069%=      5-min Rain = 0
KRRS 140345Z 25011KT 06/01 A2981 RMK A01 T00600007  RH  069%=      5-min Rain = 0
KRRS 140346Z 25012KT 06/01 A2981 RMK A01 T00590007  RH  069%=      5-min Rain = 0
KRRS 140347Z 25012KT 06/01 A2981 RMK A01 T00590007  RH  070%=      5-min Rain = 0
KRRS 140348Z 25011KT 06/01 A2981 RMK A01 T00590007  RH  070%=      5-min Rain = 0
KRRS 140349Z 25012KT 06/01 A2981 RMK A01 T00590007  RH  069%=      5-min Rain = 0
KRRS 140350Z 24012KT 06/01 A2981 RMK A01 T00590007  RH  069%=      5-min Rain = 0
KRRS 140351Z 25012KT 06/01 A2981 RMK A01 T00600007  RH  069%=      5-min Rain = 0
KRRS 140352Z 25012KT 06/01 A2981 RMK A01 T00610007  RH  068%=      5-min Rain = 0
KRRS 140353Z 25012KT 06/01 A2981 RMK A01 T00620007  RH  068%=      5-min Rain = 0
KRRS 140354Z 25012KT 06/01 A2981 RMK A01 T00620006  RH  067%=      5-min Rain = 0
KRRS 140355Z 25013KT 06/01 A2981 RMK A01 T00630006  RH  067%=      5-min Rain = 0
KRRS 140356Z 26013KT 06/01 A2981 RMK A01 T00640006  RH  067%=      5-min Rain = 0
KRRS 140357Z 26013KT 06/01 A2981 RMK A01 T00640006  RH  066%=      5-min Rain = 0
KRRS 140358Z 26012KT 06/01 A2981 RMK A01 T00640006  RH  066%=      5-min Rain = 0
KRRS 140359Z 26012KT 06/01 A2981 RMK A01 T00640006  RH  066%=      5-min Rain = 0
KRRS 140400Z 26012KT 06/01 A2981 RMK A01 T00640006  RH  067%=      5-min Rain = 0
KRRS 140401Z 26012KT 06/01 A2981 RMK A01 T00640006  RH  067%=      5-min Rain = 0
KRRS 140402Z 26012KT 06/01 A2981 RMK A01 T00640006  RH  066%=      5-min Rain = 0
KRRS 140403Z 26012KT 06/01 A2981 RMK A01 T00640006  RH  066%=      5-min Rain = 0
KRRS 140404Z 25013KT 06/01 A2981 RMK A01 T00630006  RH  067%=      5-min Rain = 0
KRRS 140405Z 26013KT 06/01 A2981 RMK A01 T00640005  RH  066%=      5-min Rain = 0
KRRS 140406Z 25013KT 07/01 A2981 RMK A01 T00660005  RH  065%=      5-min Rain = 0
KRRS 140407Z 26012KT 07/01 A2981 RMK A01 T00670005  RH  065%=      5-min Rain = 0
KRRS 140408Z 25012KT 07/01 A2981 RMK A01 T00670005  RH  065%=      5-min Rain = 0
KRRS 140409Z 26011KT 07/01 A2981 RMK A01 T00670005  RH  065%=      5-min Rain = 0
KRRS 140410Z 25012KT 07/01 A2981 RMK A01 T00660005  RH  065%=      5-min Rain = 0
KRRS 140411Z 26011KT 06/01 A2981 RMK A01 T00640005  RH  066%=      5-min Rain = 0
KRRS 140412Z 26011KT 06/01 A2981 RMK A01 T00630005  RH  066%=      5-min Rain = 0
KRRS 140413Z 26010KT 06/01 A2981 RMK A01 T00610005  RH  067%=      5-min Rain = 0
KRRS 140414Z 26009KT 06/01 A2981 RMK A01 T00590005  RH  068%=      5-min Rain = 0
KRRS 140415Z 26009KT 06/01 A2981 RMK A01 T00580005  RH  069%=      5-min Rain = 0
KRRS 140416Z 26010KT 06/01 A2981 RMK A01 T00570005  RH  069%=      5-min Rain = 0
KRRS 140417Z 26009KT 06/01 A298 RMK A01 T00570005  RH  069%=      5-min Rain = 0
KRRS 140418Z 26010KT 06/01 A298 RMK A01 T00560005  RH  069%=      5-min Rain = 0
KRRS 140419Z 26011KT 06/01 A298 RMK A01 T00560005  RH  070%=      5-min Rain = 0
KRRS 140420Z 26011KT 06/01 A2981 RMK A01 T00560005  RH  069%=      5-min Rain = 0
KRRS 140421Z 26011KT 06/01 A2981 RMK A01 T00580005  RH  069%=      5-min Rain = 0
KRRS 140422Z 26011KT 06/00 A2981 RMK A01 T00590004  RH  068%=      5-min Rain = 0
KRRS 140423Z 26010KT 06/00 A2981 RMK A01 T00590004  RH  068%=      5-min Rain = 0
KRRS 140424Z 25011KT 06/00 A2981 RMK A01 T00590004  RH  068%=      5-min Rain = 0
KRRS 140425Z 25011KT 06/00 A2981 RMK A01 T00600004  RH  067%=      5-min Rain = 0
KRRS 140426Z 25011KT 06/00 A2981 RMK A01 T00600004  RH  067%=      5-min Rain = 0
KRRS 140427Z 25011KT 06/00 A2981 RMK A01 T00610004  RH  067%=      5-min Rain = 0
KRRS 140428Z 25011KT 06/00 A2981 RMK A01 T00610004  RH  067%=      5-min Rain = 0
KRRS 140429Z 25011KT 06/00 A2981 RMK A01 T00620004  RH  066%=      5-min Rain = 0
KRRS 140430Z 25010KT 06/00 A2981 RMK A01 T00620004  RH  066%=      5-min Rain = 0
KRRS 140431Z 25011KT 06/00 A2981 RMK A01 T00610004  RH  066%=      5-min Rain = 0
KRRS 140432Z 25011KT 06/00 A2981 RMK A01 T00610004  RH  067%=      5-min Rain = 0
KRRS 140433Z 25011KT 06/00 A2981 RMK A01 T00610004  RH  067%=      5-min Rain = 0
KRRS 140434Z 25011KT 06/00 A2981 RMK A01 T00610004  RH  067%=      5-min Rain = 0
KRRS 140435Z 25011KT 06/00 A2981 RMK A01 T00610004  RH  067%=      5-min Rain = 0
KRRS 140436Z 25010KT 06/00 A2981 RMK A01 T00600004  RH  067%=      5-min Rain = 0
KRRS 140437Z 25011KT 06/00 A298 RMK A01 T00600004  RH  067%=      5-min Rain = 0
KRRS 140438Z 25012KT 06/00 A298 RMK A01 T00600003  RH  067%=      5-min Rain = 0
KRRS 140439Z 25012KT 06/00 A298 RMK A01 T00610003  RH  067%=      5-min Rain = 0
KRRS 140440Z 25012KT 06/00 A298 RMK A01 T00610004  RH  067%=      5-min Rain = 0
KRRS 140441Z 25012KT 06/00 A298 RMK A01 T00600004  RH  067%=      5-min Rain = 0
KRRS 140442Z 25012KT 06/00 A298 RMK A01 T00600004  RH  067%=      5-min Rain = 0
KRRS 140443Z 25012KT 06/00 A298 RMK A01 T00600004  RH  067%=      5-min Rain = 0
KRRS 140444Z 25012KT 06/00 A298 RMK A01 T00600003  RH  067%=      5-min Rain = 0
KRRS 140445Z 25012KT 06/00 A298 RMK A01 T00600003  RH  067%=      5-min Rain = 0
KRRS 140446Z 25013KT 06/00 A298 RMK A01 T00600004  RH  067%=      5-min Rain = 0
KRRS 140447Z 25013KT 06/00 A298 RMK A01 T00600004  RH  067%=      5-min Rain = 0
KRRS 140448Z 25013KT 06/00 A298 RMK A01 T00590003  RH  067%=      5-min Rain = 0
KRRS 140449Z 25013KT 06/00 A298 RMK A01 T00590003  RH  067%=      5-min Rain = 0
KRRS 140450Z 25013KT 06/00 A298 RMK A01 T00590003  RH  067%=      5-min Rain = 0
KRRS 140451Z 25013KT 06/00 A298 RMK A01 T00590003  RH  067%=      5-min Rain = 0
KRRS 140452Z 26013G18KT 06/00 A298 RMK A01 T00590003  RH  067%=      5-min Rain = 0
KRRS 140453Z 26013KT 06/00 A298 RMK A01 T00590003  RH  068%=      5-min Rain = 0
KRRS 140454Z 26014KT 06/00 A298 RMK A01 T00580003  RH  068%=      5-min Rain = 0
KRRS 140455Z 26014KT 06/00 A298 RMK A01 T00580003  RH  068%=      5-min Rain = 0
KRRS 140456Z 26014KT 06/00 A298 RMK A01 T00580003  RH  068%=      5-min Rain = 0
KRRS 140457Z 26014KT 06/00 A298 RMK A01 T00580003  RH  068%=      5-min Rain = 0
KRRS 140458Z 26015KT 06/00 A298 RMK A01 T00580003  RH  068%=      5-min Rain = 0
KRRS 140459Z 26014KT 06/00 A298 RMK A01 T00590003  RH  067%=      5-min Rain = 0
KRRS 140500Z 25015G20KT 06/00 A298 RMK A01 T00580003  RH  067%=      5-min Rain = 0
KRRS 140501Z 25014G19KT 06/00 A298 RMK A01 T00580003  RH  068%=      5-min Rain = 0
KRRS 140502Z 25014KT 06/00 A298 RMK A01 T00580003  RH  068%=      5-min Rain = 0
KRRS 140503Z 25014KT 06/00 A298 RMK A01 T00580002  RH  068%=      5-min Rain = 0
KRRS 140504Z 25014KT 06/00 A298 RMK A01 T00580003  RH  068%=      5-min Rain = 0
KRRS 140505Z 25015KT 06/00 A298 RMK A01 T00580002  RH  068%=      5-min Rain = 0
KRRS 140506Z 25015KT 06/00 A2979 RMK A01 T00580003  RH  068%=      5-min Rain = 0
KRRS 140507Z 25016KT 06/00 A2979 RMK A01 T00590002  RH  067%=      5-min Rain = 0
KRRS 140508Z 25015KT 06/00 A2979 RMK A01 T00590003  RH  067%=      5-min Rain = 0
KRRS 140509Z 25015KT 06/00 A2979 RMK A01 T00590003  RH  067%=      5-min Rain = 0
KRRS 140510Z 25014G20KT 06/00 A2979 RMK A01 T00590003  RH  067%=      5-min Rain = 0
KRRS 140511Z 25015KT 06/00 A2979 RMK A01 T00590003  RH  067%=      5-min Rain = 0
KRRS 140512Z 25015KT 06/00 A2979 RMK A01 T00590003  RH  067%=      5-min Rain = 0
KRRS 140513Z 25016KT 06/00 A2979 RMK A01 T00590003  RH  067%=      5-min Rain = 0
KRRS 140514Z 25016KT 06/00 A298 RMK A01 T00590003  RH  067%=      5-min Rain = 0
KRRS 140515Z 25015G21KT 06/00 A298 RMK A01 T00590003  RH  067%=      5-min Rain = 0
KRRS 140516Z 25015G20KT 06/00 A298 RMK A01 T00590003  RH  067%=      5-min Rain = 0
KRRS 140517Z 25015KT 06/00 A298 RMK A01 T00590004  RH  067%=      5-min Rain = 0
KRRS 140518Z 25014KT 06/00 A298 RMK A01 T00590003  RH  067%=      5-min Rain = 0
KRRS 140519Z 25014KT 06/00 A298 RMK A01 T00590003  RH  067%=      5-min Rain = 0
KRRS 140520Z 25015KT 06/00 A298 RMK A01 T00590003  RH  068%=      5-min Rain = 0
KRRS 140521Z 25014KT 06/00 A298 RMK A01 T00580003  RH  068%=      5-min Rain = 0
KRRS 140522Z 25014KT 06/00 A2979 RMK A01 T00580003  RH  068%=      5-min Rain = 0
KRRS 140523Z 25014KT 06/00 A2979 RMK A01 T00580003  RH  068%=      5-min Rain = 0
KRRS 140524Z 26013KT 06/00 A2979 RMK A01 T00570003  RH  068%=      5-min Rain = 0
KRRS 140525Z 26014KT 06/00 A2979 RMK A01 T00570003  RH  068%=      5-min Rain = 0
KRRS 140526Z 26014KT 06/00 A2979 RMK A01 T00560003  RH  069%=      5-min Rain = 0
KRRS 140527Z 26014KT 06/00 A2979 RMK A01 T00560003  RH  069%=      5-min Rain = 0
KRRS 140528Z 26014KT 06/00 A2979 RMK A01 T00550003  RH  069%=      5-min Rain = 0
KRRS 140529Z 26014KT 06/00 A2979 RMK A01 T00550003  RH  069%=      5-min Rain = 0
KRRS 140530Z 26013KT 06/00 A2979 RMK A01 T00550003  RH  069%=      5-min Rain = 0
KRRS 140531Z 26013KT 06/00 A2979 RMK A01 T00550003  RH  069%=      5-min Rain = 0
KRRS 140532Z 25013KT 05/00 A2979 RMK A01 T00540003  RH  069%=      5-min Rain = 0
KRRS 140533Z 26012KT 05/00 A2979 RMK A01 T00540003  RH  069%=      5-min Rain = 0
KRRS 140534Z 26013KT 05/00 A2979 RMK A01 T00540003  RH  069%=      5-min Rain = 0
KRRS 140535Z 26013KT 05/00 A2979 RMK A01 T00540002  RH  069%=      5-min Rain = 0
KRRS 140536Z 26012KT 05/00 A2979 RMK A01 T00540002  RH  069%=      5-min Rain = 0
KRRS 140537Z 26013KT 05/00 A2979 RMK A01 T00540002  RH  069%=      5-min Rain = 0
KRRS 140538Z 26014KT 05/00 A2979 RMK A01 T00540002  RH  069%=      5-min Rain = 0
KRRS 140539Z 26012KT 06/00 A2979 RMK A01 T00550002  RH  068%=      5-min Rain = 0
KRRS 140540Z 25013KT 06/00 A2979 RMK A01 T00560002  RH  068%=      5-min Rain = 0
KRRS 140541Z 25014KT 06/00 A2979 RMK A01 T00560001  RH  068%=      5-min Rain = 0
KRRS 140542Z 25013G18KT 06/00 A2979 RMK A01 T00570001  RH  067%=      5-min Rain = 0
KRRS 140543Z 25013KT 06/00 A2979 RMK A01 T00570001  RH  067%=      5-min Rain = 0
KRRS 140544Z 25014KT 06/00 A2979 RMK A01 T00570001  RH  067%=      5-min Rain = 0
KRRS 140545Z 25013KT 06/00 A2979 RMK A01 T00570001  RH  067%=      5-min Rain = 0
KRRS 140546Z 25013KT 06/00 A2979 RMK A01 T00580000  RH  067%=      5-min Rain = 0
KRRS 140547Z 25013KT 06/00 A2979 RMK A01 T00580000  RH  066%=      5-min Rain = 0
KRRS 140548Z 25014KT 06/00 A2979 RMK A01 T005800-0  RH  066%=      5-min Rain = 0
KRRS 140549Z 25013KT 06/00 A2979 RMK A01 T00590000  RH  066%=      5-min Rain = 0
KRRS 140550Z 25013KT 06/00 A2979 RMK A01 T00590000  RH  066%=      5-min Rain = 0
KRRS 140551Z 25015KT 06/00 A2979 RMK A01 T00580000  RH  066%=      5-min Rain = 0
KRRS 140552Z 25014KT 06/M00 A2979 RMK A01 T00581001  RH  066%=      5-min Rain = 0
KRRS 140553Z 25013KT 06/00 A2979 RMK A01 T005800-0  RH  066%=      5-min Rain = 0
KRRS 140554Z 25014KT 06/00 A2979 RMK A01 T005800-0  RH  066%=      5-min Rain = 0
KRRS 140555Z 25014KT 06/M00 A2979 RMK A01 T00581001  RH  066%=      5-min Rain = 0
KRRS 140556Z 25014KT 06/M00 A2979 RMK A01 T00581001  RH  066%=      5-min Rain = 0
KRRS 140557Z 25014KT 06/M00 A2979 RMK A01 T00581001  RH  066%=      5-min Rain = 0
KRRS 140558Z 25014KT 06/M00 A2979 RMK A01 T00581001  RH  066%=      5-min Rain = 0
KRRS 140559Z 25013KT 06/M00 A2979 RMK A01 T00581001  RH  066%=      5-min Rain = 0

Page generated in 0.1217 seconds.